Observation data for Junction on 03/13/2018      Previous  Date       Current Mesonet Observations  Soil Data  Daily Summary Page  Observations in Plain Language
KJU1 130501Z 19002KT 04/M02 A3026 RMK A01 T00361021  RH  066%=      5-min Rain = 0
KJU1 130502Z 19002KT 04/M02 A3026 RMK A01 T00361022  RH  066%=      5-min Rain = 0
KJU1 130503Z 19002KT 03/M02 A3026 RMK A01 T00341024  RH  066%=      5-min Rain = 0
KJU1 130504Z 19002KT 03/M03 A3026 RMK A01 T00321025  RH  066%=      5-min Rain = 0
KJU1 130505Z 19002KT 03/M02 A3026 RMK A01 T00321024  RH  067%=      5-min Rain = 0
KJU1 130506Z 19002KT 03/M02 A3026 RMK A01 T00321024  RH  067%=      5-min Rain = 0
KJU1 130507Z 19002KT 03/M02 A3026 RMK A01 T00311024  RH  067%=      5-min Rain = 0
KJU1 130508Z 19002KT 03/M03 A3026 RMK A01 T00301025  RH  067%=      5-min Rain = 0
KJU1 130509Z 19002KT 03/M03 A3026 RMK A01 T00291025  RH  067%=      5-min Rain = 0
KJU1 130510Z 19002KT 03/M03 A3026 RMK A01 T00281025  RH  068%=      5-min Rain = 0
KJU1 130511Z 19002KT 03/M02 A3026 RMK A01 T00281024  RH  069%=      5-min Rain = 0
KJU1 130512Z 19002KT 03/M02 A3026 RMK A01 T00291022  RH  069%=      5-min Rain = 0
KJU1 130513Z 19002KT 03/M02 A3026 RMK A01 T00301022  RH  068%=      5-min Rain = 0
KJU1 130514Z 19002KT 03/M02 A3026 RMK A01 T00311022  RH  068%=      5-min Rain = 0
KJU1 130515Z 19002KT 03/M02 A3026 RMK A01 T00311022  RH  068%=      5-min Rain = 0
KJU1 130516Z 19002KT 03/M02 A3026 RMK A01 T00311022  RH  068%=      5-min Rain = 0
KJU1 130517Z 21002KT 03/M02 A3026 RMK A01 T00321022  RH  068%=      5-min Rain = 0
KJU1 130518Z 21001KT 03/M02 A3026 RMK A01 T00321022  RH  068%=      5-min Rain = 0
KJU1 130519Z 23001KT 03/M02 A3026 RMK A01 T00311022  RH  068%=      5-min Rain = 0
KJU1 130520Z 23001KT 03/M02 A3026 RMK A01 T00311022  RH  068%=      5-min Rain = 0
KJU1 130521Z 23001KT 03/M02 A3026 RMK A01 T00311022  RH  068%=      5-min Rain = 0
KJU1 130522Z 23001KT 03/M02 A3026 RMK A01 T00301022  RH  068%=      5-min Rain = 0
KJU1 130523Z 23000KT 03/M02 A3026 RMK A01 T00301022  RH  068%=      5-min Rain = 0
KJU1 130524Z 00000KT 03/M02 A3026 RMK A01 T00301023  RH  068%=      5-min Rain = 0
KJU1 130525Z 00000KT 03/M02 A3026 RMK A01 T00311022  RH  068%=      5-min Rain = 0
KJU1 130526Z 00000KT 03/M02 A3025 RMK A01 T00321020  RH  069%=      5-min Rain = 0
KJU1 130527Z 00000KT 03/M02 A3026 RMK A01 T00331018  RH  069%=      5-min Rain = 0
KJU1 130528Z 00000KT 04/M02 A3026 RMK A01 T00351018  RH  068%=      5-min Rain = 0
KJU1 130529Z 00000KT 03/M02 A3026 RMK A01 T00341020  RH  068%=      5-min Rain = 0
KJU1 130530Z 00000KT 03/M02 A3026 RMK A01 T00331021  RH  068%=      5-min Rain = 0
KJU1 130531Z 00000KT 03/M02 A3026 RMK A01 T00311021  RH  069%=      5-min Rain = 0
KJU1 130532Z 00000KT 03/M02 A3026 RMK A01 T00301022  RH  069%=      5-min Rain = 0
KJU1 130533Z 00000KT 03/M02 A3026 RMK A01 T00301022  RH  069%=      5-min Rain = 0
KJU1 130534Z 00000KT 03/M02 A3026 RMK A01 T00301021  RH  069%=      5-min Rain = 0
KJU1 130535Z 00000KT 03/M02 A3026 RMK A01 T00301022  RH  069%=      5-min Rain = 0
KJU1 130536Z 00000KT 03/M03 A3026 RMK A01 T00291025  RH  068%=      5-min Rain = 0
KJU1 130537Z 00000KT 03/M03 A3026 RMK A01 T00281026  RH  068%=      5-min Rain = 0
KJU1 130538Z 00000KT 03/M03 A3026 RMK A01 T00261026  RH  068%=      5-min Rain = 0
KJU1 130539Z 00000KT 03/M03 A3026 RMK A01 T00251027  RH  068%=      5-min Rain = 0
KJU1 130540Z 00000KT 02/M03 A3026 RMK A01 T00241027  RH  069%=      5-min Rain = 0
KJU1 130541Z 00000KT 02/M03 A3026 RMK A01 T00241025  RH  070%=      5-min Rain = 0
KJU1 130542Z 00000KT 02/M03 A3026 RMK A01 T00241025  RH  070%=      5-min Rain = 0
KJU1 130543Z 00000KT 02/M03 A3026 RMK A01 T00241026  RH  069%=      5-min Rain = 0
KJU1 130544Z 00000KT 02/M03 A3026 RMK A01 T00231027  RH  069%=      5-min Rain = 0
KJU1 130545Z 21001KT 02/M03 A3026 RMK A01 T00241025  RH  070%=      5-min Rain = 0
KJU1 130546Z 20002KT 03/M02 A3026 RMK A01 T00251024  RH  070%=      5-min Rain = 0
KJU1 130547Z 20002KT 03/M03 A3026 RMK A01 T00251025  RH  070%=      5-min Rain = 0
KJU1 130548Z 19002KT 03/M03 A3026 RMK A01 T00251026  RH  069%=      5-min Rain = 0
KJU1 130549Z 19002KT 02/M03 A3026 RMK A01 T00231027  RH  070%=      5-min Rain = 0
KJU1 130550Z 19002KT 02/M03 A3026 RMK A01 T00221026  RH  070%=      5-min Rain = 0
KJU1 130551Z 19002KT 02/M03 A3025 RMK A01 T00221026  RH  071%=      5-min Rain = 0
KJU1 130552Z 19002KT 02/M03 A3025 RMK A01 T00211027  RH  071%=      5-min Rain = 0
KJU1 130553Z 19002KT 02/M03 A3025 RMK A01 T00201027  RH  071%=      5-min Rain = 0
KJU1 130554Z 20002KT 02/M03 A3025 RMK A01 T00191027  RH  071%=      5-min Rain = 0
KJU1 130555Z 20002KT 02/M03 A3025 RMK A01 T00191027  RH  072%=      5-min Rain = 0
KJU1 130556Z 20002KT 02/M03 A3025 RMK A01 T00191027  RH  072%=      5-min Rain = 0
KJU1 130557Z 20002KT 02/M03 A3025 RMK A01 T00181027  RH  072%=      5-min Rain = 0
KJU1 130558Z 20001KT 02/M02 A3025 RMK A01 T00191024  RH  073%=      5-min Rain = 0
KJU1 130559Z 21002KT 02/M02 A3025 RMK A01 T00201021  RH  074%=      5-min Rain = 0
KJU1 130600Z 21001KT 02/M02 A3025 RMK A01 T00211019  RH  075%=      5-min Rain = 0
KJU1 130601Z 21001KT 02/M02 A3025 RMK A01 T00221018  RH  075%=      5-min Rain = 0
KJU1 130602Z 21001KT 02/M02 A3025 RMK A01 T00221019  RH  074%=      5-min Rain = 0
KJU1 130603Z 00000KT 02/M02 A3025 RMK A01 T00221020  RH  073%=      5-min Rain = 0
KJU1 130604Z 00000KT 02/M02 A3025 RMK A01 T00221022  RH  073%=      5-min Rain = 0
KJU1 130605Z 00000KT 02/M02 A3025 RMK A01 T00211023  RH  072%=      5-min Rain = 0
KJU1 130606Z 00000KT 02/M02 A3025 RMK A01 T00211024  RH  072%=      5-min Rain = 0
KJU1 130607Z 00000KT 02/M02 A3025 RMK A01 T00221023  RH  072%=      5-min Rain = 0
KJU1 130608Z 00000KT 02/M02 A3025 RMK A01 T00231022  RH  072%=      5-min Rain = 0
KJU1 130609Z 00000KT 02/M02 A3025 RMK A01 T00241021  RH  073%=      5-min Rain = 0
KJU1 130610Z 00000KT 03/M02 A3025 RMK A01 T00251020  RH  072%=      5-min Rain = 0
KJU1 130611Z 00000KT 02/M02 A3025 RMK A01 T00241021  RH  072%=      5-min Rain = 0
KJU1 130612Z 00000KT 02/M02 A3025 RMK A01 T00231023  RH  071%=      5-min Rain = 0
KJU1 130613Z 00000KT 02/M02 A3025 RMK A01 T00231024  RH  071%=      5-min Rain = 0
KJU1 130614Z 00000KT 02/M03 A3025 RMK A01 T00211027  RH  070%=      5-min Rain = 0
KJU1 130615Z 00000KT 02/M03 A3025 RMK A01 T00201028  RH  070%=      5-min Rain = 0
KJU1 130616Z 00000KT 02/M03 A3026 RMK A01 T00201028  RH  071%=      5-min Rain = 0
KJU1 130617Z 00000KT 02/M03 A3026 RMK A01 T00191027  RH  072%=      5-min Rain = 0
KJU1 130618Z 00000KT 02/M03 A3026 RMK A01 T00181027  RH  072%=      5-min Rain = 0
KJU1 130619Z 00000KT 02/M03 A3026 RMK A01 T00171028  RH  072%=      5-min Rain = 0
KJU1 130620Z 19000KT 02/M03 A3025 RMK A01 T00161028  RH  073%=      5-min Rain = 0
KJU1 130621Z 19001KT 02/M03 A3025 RMK A01 T00161027  RH  073%=      5-min Rain = 0
KJU1 130622Z 19001KT 02/M03 A3025 RMK A01 T00171025  RH  074%=      5-min Rain = 0
KJU1 130623Z 19001KT 02/M02 A3025 RMK A01 T00191023  RH  074%=      5-min Rain = 0
KJU1 130624Z 19001KT 02/M02 A3025 RMK A01 T00201023  RH  073%=      5-min Rain = 0
KJU1 130625Z 19001KT 02/M02 A3025 RMK A01 T00211021  RH  074%=      5-min Rain = 0
KJU1 130626Z 19001KT 02/M02 A3025 RMK A01 T00221021  RH  073%=      5-min Rain = 0
KJU1 130627Z 19002KT 02/M02 A3025 RMK A01 T00221023  RH  072%=      5-min Rain = 0
KJU1 130628Z 18002KT 02/M03 A3026 RMK A01 T00201026  RH  072%=      5-min Rain = 0
KJU1 130629Z 18002KT 02/M03 A3026 RMK A01 T00181026  RH  072%=      5-min Rain = 0
KJU1 130630Z 19002KT 02/M03 A3026 RMK A01 T00171027  RH  072%=      5-min Rain = 0
KJU1 130631Z 19003KT 02/M03 A3026 RMK A01 T00161028  RH  073%=      5-min Rain = 0
KJU1 130632Z 19004KT 02/M03 A3026 RMK A01 T00161025  RH  074%=      5-min Rain = 0
KJU1 130633Z 20004KT 02/M02 A3026 RMK A01 T00171024  RH  075%=      5-min Rain = 0
KJU1 130634Z 20005KT 02/M02 A3026 RMK A01 T00171022  RH  075%=      5-min Rain = 0
KJU1 130635Z 20006KT 02/M02 A3026 RMK A01 T00181022  RH  075%=      5-min Rain = 0
KJU1 130636Z 21005KT 02/M02 A3026 RMK A01 T00181020  RH  076%=      5-min Rain = 0
KJU1 130637Z 20004KT 02/M02 A3026 RMK A01 T00211017  RH  076%=      5-min Rain = 0
KJU1 130638Z 19003KT 02/M02 A3026 RMK A01 T00221015  RH  076%=      5-min Rain = 0
KJU1 130639Z 17003KT 02/M01 A3026 RMK A01 T00241014  RH  076%=      5-min Rain = 0
KJU1 130640Z 16003KT 02/M01 A3026 RMK A01 T00241014  RH  076%=      5-min Rain = 0
KJU1 130641Z 16004KT 02/M01 A3026 RMK A01 T00241014  RH  076%=      5-min Rain = 0
KJU1 130642Z 15004KT 02/M02 A3026 RMK A01 T00241015  RH  075%=      5-min Rain = 0
KJU1 130643Z 16004KT 03/M02 A3026 RMK A01 T00251015  RH  074%=      5-min Rain = 0
KJU1 130644Z 17005KT 03/M02 A3026 RMK A01 T00261016  RH  074%=      5-min Rain = 0
KJU1 130645Z 17004KT 03/M02 A3026 RMK A01 T00271016  RH  073%=      5-min Rain = 0
KJU1 130646Z 17004KT 03/M02 A3026 RMK A01 T00281016  RH  073%=      5-min Rain = 0
KJU1 130647Z 17004KT 03/M02 A3026 RMK A01 T00281016  RH  073%=      5-min Rain = 0
KJU1 130648Z 18004KT 03/M02 A3026 RMK A01 T00291015  RH  073%=      5-min Rain = 0
KJU1 130649Z 18004KT 03/M02 A3026 RMK A01 T00291016  RH  072%=      5-min Rain = 0
KJU1 130650Z 18004KT 03/M02 A3026 RMK A01 T00291016  RH  072%=      5-min Rain = 0
KJU1 130651Z 20003KT 03/M02 A3025 RMK A01 T00291016  RH  072%=      5-min Rain = 0
KJU1 130652Z 22003KT 03/M02 A3025 RMK A01 T00281016  RH  073%=      5-min Rain = 0
KJU1 130653Z 21003KT 03/M02 A3025 RMK A01 T00291015  RH  073%=      5-min Rain = 0
KJU1 130654Z 19003KT 03/M01 A3025 RMK A01 T00291014  RH  073%=      5-min Rain = 0
KJU1 130655Z 19002KT 03/M01 A3025 RMK A01 T00301014  RH  073%=      5-min Rain = 0
KJU1 130656Z 18001KT 03/M01 A3025 RMK A01 T00301014  RH  073%=      5-min Rain = 0
KJU1 130657Z 17001KT 03/M01 A3025 RMK A01 T00301014  RH  073%=      5-min Rain = 0
KJU1 130658Z 15001KT 03/M02 A3025 RMK A01 T00301015  RH  073%=      5-min Rain = 0
KJU1 130659Z 14001KT 03/M01 A3025 RMK A01 T00301014  RH  073%=      5-min Rain = 0
KJU1 130700Z 14000KT 03/M02 A3025 RMK A01 T00301015  RH  073%=      5-min Rain = 0
KJU1 130701Z 14000KT 03/M01 A3025 RMK A01 T00301014  RH  073%=      5-min Rain = 0
KJU1 130702Z 14000KT 03/M01 A3025 RMK A01 T00301014  RH  073%=      5-min Rain = 0
KJU1 130703Z 00000KT 03/M01 A3025 RMK A01 T00301014  RH  073%=      5-min Rain = 0
KJU1 130704Z 00000KT 03/M01 A3025 RMK A01 T00301014  RH  073%=      5-min Rain = 0
KJU1 130705Z 00000KT 03/M01 A3025 RMK A01 T00301014  RH  073%=      5-min Rain = 0
KJU1 130706Z 00000KT 03/M01 A3025 RMK A01 T00301014  RH  073%=      5-min Rain = 0
KJU1 130707Z 00000KT 03/M01 A3025 RMK A01 T00301014  RH  073%=      5-min Rain = 0
KJU1 130708Z 00000KT 03/M01 A3025 RMK A01 T00301014  RH  073%=      5-min Rain = 0
KJU1 130709Z 00000KT 03/M01 A3025 RMK A01 T00301014  RH  073%=      5-min Rain = 0
KJU1 130710Z 00000KT 03/M02 A3025 RMK A01 T00291015  RH  073%=      5-min Rain = 0
KJU1 130711Z 00000KT 03/M02 A3025 RMK A01 T00291015  RH  073%=      5-min Rain = 0
KJU1 130712Z 00000KT 03/M02 A3025 RMK A01 T00291015  RH  073%=      5-min Rain = 0
KJU1 130713Z 00000KT 03/M02 A3025 RMK A01 T00271018  RH  072%=      5-min Rain = 0
KJU1 130714Z 05001KT 03/M02 A3025 RMK A01 T00261018  RH  073%=      5-min Rain = 0
KJU1 130715Z 04001KT 03/M02 A3025 RMK A01 T00261016  RH  074%=      5-min Rain = 0
KJU1 130716Z 04002KT 03/M02 A3025 RMK A01 T00261016  RH  074%=      5-min Rain = 0
KJU1 130717Z 04003KT 03/M02 A3025 RMK A01 T00251018  RH  074%=      5-min Rain = 0
KJU1 130718Z 03002KT 02/M02 A3025 RMK A01 T00241018  RH  074%=      5-min Rain = 0
KJU1 130719Z 03002KT 02/M02 A3025 RMK A01 T00231018  RH  074%=      5-min Rain = 0
KJU1 130720Z 03002KT 02/M02 A3025 RMK A01 T00221018  RH  074%=      5-min Rain = 0
KJU1 130721Z 04002KT 02/M02 A3025 RMK A01 T00221018  RH  075%=      5-min Rain = 0
KJU1 130722Z 04003KT 02/M02 A3025 RMK A01 T00221017  RH  075%=      5-min Rain = 0
KJU1 130723Z 04003KT 02/M02 A3025 RMK A01 T00231016  RH  075%=      5-min Rain = 0
KJU1 130724Z 04003KT 02/M02 A3025 RMK A01 T00241016  RH  075%=      5-min Rain = 0
KJU1 130725Z 03003KT 03/M02 A3025 RMK A01 T00251016  RH  075%=      5-min Rain = 0
KJU1 130726Z 03003KT 03/M02 A3025 RMK A01 T00251016  RH  075%=      5-min Rain = 0
KJU1 130727Z 01003KT 02/M02 A3025 RMK A01 T00241016  RH  074%=      5-min Rain = 0
KJU1 130728Z 01002KT 02/M02 A3025 RMK A01 T00241015  RH  076%=      5-min Rain = 0
KJU1 130729Z 01003KT 03/M01 A3025 RMK A01 T00261012  RH  076%=      5-min Rain = 0
KJU1 130730Z 01002KT 03/M01 A3025 RMK A01 T00271011  RH  076%=      5-min Rain = 0
KJU1 130731Z 00002KT 03/M01 A3025 RMK A01 T00281012  RH  075%=      5-min Rain = 0
KJU1 130732Z 01003KT 03/M01 A3025 RMK A01 T00291012  RH  075%=      5-min Rain = 0
KJU1 130733Z 01002KT 03/M01 A3025 RMK A01 T00291012  RH  074%=      5-min Rain = 0
KJU1 130734Z 01002KT 03/M01 A3025 RMK A01 T00301012  RH  074%=      5-min Rain = 0
KJU1 130735Z 36002KT 03/M01 A3025 RMK A01 T00301013  RH  074%=      5-min Rain = 0
KJU1 130736Z 36002KT 03/M01 A3024 RMK A01 T00301013  RH  074%=      5-min Rain = 0
KJU1 130737Z 00003KT 03/M01 A3024 RMK A01 T00301013  RH  073%=      5-min Rain = 0
KJU1 130738Z 00003KT 03/M01 A3024 RMK A01 T00301013  RH  073%=      5-min Rain = 0
KJU1 130739Z 00003KT 03/M01 A3024 RMK A01 T00301013  RH  073%=      5-min Rain = 0
KJU1 130740Z 01002KT 03/M01 A3024 RMK A01 T00301014  RH  073%=      5-min Rain = 0
KJU1 130741Z 01003KT 03/M01 A3024 RMK A01 T00301014  RH  073%=      5-min Rain = 0
KJU1 130742Z 01002KT 03/M02 A3024 RMK A01 T00301015  RH  072%=      5-min Rain = 0
KJU1 130743Z 01002KT 03/M02 A3024 RMK A01 T00291015  RH  072%=      5-min Rain = 0
KJU1 130744Z 00002KT 03/M02 A3024 RMK A01 T00291016  RH  073%=      5-min Rain = 0
KJU1 130745Z 35002KT 03/M02 A3024 RMK A01 T00291015  RH  073%=      5-min Rain = 0
KJU1 130746Z 34002KT 03/M02 A3024 RMK A01 T00291015  RH  073%=      5-min Rain = 0
KJU1 130747Z 34002KT 03/M02 A3024 RMK A01 T00291015  RH  073%=      5-min Rain = 0
KJU1 130748Z 32001KT 03/M02 A3024 RMK A01 T00291015  RH  073%=      5-min Rain = 0
KJU1 130749Z 31001KT 03/M02 A3024 RMK A01 T00281015  RH  073%=      5-min Rain = 0
KJU1 130750Z 33001KT 03/M02 A3024 RMK A01 T00291016  RH  073%=      5-min Rain = 0
KJU1 130751Z 32001KT 03/M02 A3024 RMK A01 T00271018  RH  072%=      5-min Rain = 0
KJU1 130752Z 33001KT 03/M02 A3024 RMK A01 T00261019  RH  072%=      5-min Rain = 0
KJU1 130753Z 34000KT 03/M02 A3024 RMK A01 T00251020  RH  072%=      5-min Rain = 0
KJU1 130754Z 00000KT 02/M02 A3024 RMK A01 T00231021  RH  073%=      5-min Rain = 0
KJU1 130755Z 00000KT 02/M02 A3024 RMK A01 T00221021  RH  073%=      5-min Rain = 0
KJU1 130756Z 00000KT 02/M02 A3024 RMK A01 T00201022  RH  074%=      5-min Rain = 0
KJU1 130757Z 00000KT 02/M02 A3024 RMK A01 T00191023  RH  074%=      5-min Rain = 0
KJU1 130758Z 00000KT 02/M02 A3024 RMK A01 T00181022  RH  075%=      5-min Rain = 0
KJU1 130759Z 00000KT 02/M02 A3024 RMK A01 T00181020  RH  076%=      5-min Rain = 0
KJU1 130800Z 00000KT 02/M02 A3024 RMK A01 T00171022  RH  075%=      5-min Rain = 0
KJU1 130801Z 00000KT 02/M02 A3024 RMK A01 T00161024  RH  075%=      5-min Rain = 0
KJU1 130802Z 00000KT 02/M02 A3024 RMK A01 T00151024  RH  075%=      5-min Rain = 0
KJU1 130803Z 00000KT 02/M02 A3024 RMK A01 T00151023  RH  076%=      5-min Rain = 0
KJU1 130804Z 00000KT 01/M02 A3024 RMK A01 T00141024  RH  076%=      5-min Rain = 0
KJU1 130805Z 00000KT 01/M03 A3024 RMK A01 T00131025  RH  076%=      5-min Rain = 0
KJU1 130806Z 34000KT 01/M03 A3024 RMK A01 T00121026  RH  075%=      5-min Rain = 0
KJU1 130807Z 34000KT 01/M03 A3024 RMK A01 T00111028  RH  076%=      5-min Rain = 0
KJU1 130808Z 34000KT 01/M03 A3024 RMK A01 T00101027  RH  076%=      5-min Rain = 0
KJU1 130809Z 00000KT 01/M03 A3024 RMK A01 T00101026  RH  077%=      5-min Rain = 0
KJU1 130810Z 00000KT 01/M03 A3024 RMK A01 T00101025  RH  077%=      5-min Rain = 0
KJU1 130811Z 00000KT 01/M02 A3023 RMK A01 T00111024  RH  078%=      5-min Rain = 0
KJU1 130812Z 00000KT 01/M02 A3023 RMK A01 T00121023  RH  078%=      5-min Rain = 0
KJU1 130813Z 00000KT 01/M02 A3024 RMK A01 T00121022  RH  078%=      5-min Rain = 0
KJU1 130814Z 00000KT 01/M02 A3024 RMK A01 T00121024  RH  077%=      5-min Rain = 0
KJU1 130815Z 00000KT 01/M03 A3023 RMK A01 T00111025  RH  077%=      5-min Rain = 0
KJU1 130816Z 34000KT 01/M03 A3023 RMK A01 T00111025  RH  077%=      5-min Rain = 0
KJU1 130817Z 33001KT 01/M03 A3023 RMK A01 T00091026  RH  077%=      5-min Rain = 0
KJU1 130818Z 20001KT 01/M03 A3023 RMK A01 T00081027  RH  077%=      5-min Rain = 0
KJU1 130819Z 20001KT 01/M03 A3023 RMK A01 T00081028  RH  077%=      5-min Rain = 0
KJU1 130820Z 20001KT 01/M03 A3023 RMK A01 T00061029  RH  077%=      5-min Rain = 0
KJU1 130821Z 20000KT 01/M03 A3023 RMK A01 T00061028  RH  078%=      5-min Rain = 0
KJU1 130822Z 20001KT 01/M03 A3023 RMK A01 T00061028  RH  078%=      5-min Rain = 0
KJU1 130823Z 20001KT 01/M03 A3023 RMK A01 T00061027  RH  079%=      5-min Rain = 0
KJU1 130824Z 20000KT 01/M03 A3023 RMK A01 T00071025  RH  079%=      5-min Rain = 0
KJU1 130825Z 20001KT 01/M03 A3023 RMK A01 T00071025  RH  079%=      5-min Rain = 0
KJU1 130826Z 20001KT 01/M03 A3023 RMK A01 T00071026  RH  078%=      5-min Rain = 0
KJU1 130827Z 21001KT 01/M03 A3023 RMK A01 T00071027  RH  078%=      5-min Rain = 0
KJU1 130828Z 22001KT 01/M03 A3023 RMK A01 T00061027  RH  078%=      5-min Rain = 0
KJU1 130829Z 23002KT 01/M03 A3023 RMK A01 T00071026  RH  079%=      5-min Rain = 0
KJU1 130830Z 23002KT 01/M03 A3023 RMK A01 T00061026  RH  079%=      5-min Rain = 0
KJU1 130831Z 23002KT 01/M03 A3023 RMK A01 T00061026  RH  079%=      5-min Rain = 0
KJU1 130832Z 23002KT 01/M03 A3023 RMK A01 T00071025  RH  079%=      5-min Rain = 0
KJU1 130833Z 22002KT 01/M03 A3023 RMK A01 T00061025  RH  079%=      5-min Rain = 0
KJU1 130834Z 22002KT 01/M03 A3023 RMK A01 T00071025  RH  080%=      5-min Rain = 0
KJU1 130835Z 22002KT 01/M02 A3024 RMK A01 T00061024  RH  080%=      5-min Rain = 0
KJU1 130836Z 21002KT 01/M03 A3024 RMK A01 T00061025  RH  080%=      5-min Rain = 0
KJU1 130837Z 21002KT 01/M03 A3024 RMK A01 T00061025  RH  080%=      5-min Rain = 0
KJU1 130838Z 21001KT 01/M03 A3024 RMK A01 T00061025  RH  080%=      5-min Rain = 0
KJU1 130839Z 21001KT 01/M02 A3024 RMK A01 T00061024  RH  080%=      5-min Rain = 0
KJU1 130840Z 21001KT 01/M02 A3024 RMK A01 T00061023  RH  081%=      5-min Rain = 0
KJU1 130841Z 20001KT 01/M02 A3024 RMK A01 T00071022  RH  081%=      5-min Rain = 0
KJU1 130842Z 20001KT 01/M02 A3023 RMK A01 T00091020  RH  081%=      5-min Rain = 0
KJU1 130843Z 20001KT 01/M02 A3023 RMK A01 T00111017  RH  081%=      5-min Rain = 0
KJU1 130844Z 19001KT 01/M02 A3023 RMK A01 T00131016  RH  081%=      5-min Rain = 0
KJU1 130845Z 18001KT 01/M02 A3023 RMK A01 T00141015  RH  081%=      5-min Rain = 0
KJU1 130846Z 18002KT 02/M01 A3023 RMK A01 T00161014  RH  081%=      5-min Rain = 0
KJU1 130847Z 18001KT 02/M01 A3024 RMK A01 T00161014  RH  080%=      5-min Rain = 0
KJU1 130848Z 18001KT 02/M01 A3024 RMK A01 T00171014  RH  080%=      5-min Rain = 0
KJU1 130849Z 18001KT 02/M01 A3024 RMK A01 T00181013  RH  080%=      5-min Rain = 0
KJU1 130850Z 18001KT 02/M01 A3024 RMK A01 T00181014  RH  079%=      5-min Rain = 0
KJU1 130851Z 18001KT 02/M01 A3024 RMK A01 T00181014  RH  079%=      5-min Rain = 0
KJU1 130852Z 18001KT 02/M01 A3024 RMK A01 T00181014  RH  079%=      5-min Rain = 0
KJU1 130853Z 18000KT 02/M02 A3023 RMK A01 T00181015  RH  079%=      5-min Rain = 0
KJU1 130854Z 18000KT 02/M02 A3023 RMK A01 T00181016  RH  078%=      5-min Rain = 0
KJU1 130855Z 00000KT 02/M02 A3023 RMK A01 T00171017  RH  078%=      5-min Rain = 0
KJU1 130856Z 00000KT 02/M02 A3023 RMK A01 T00171017  RH  078%=      5-min Rain = 0
KJU1 130857Z 00000KT 02/M02 A3023 RMK A01 T00161017  RH  078%=      5-min Rain = 0
KJU1 130858Z 00000KT 02/M02 A3023 RMK A01 T00161018  RH  078%=      5-min Rain = 0
KJU1 130859Z 00000KT 02/M02 A3023 RMK A01 T00161018  RH  078%=      5-min Rain = 0
KJU1 130900Z 18000KT 02/M02 A3023 RMK A01 T00161018  RH  078%=      5-min Rain = 0
KJU1 130901Z 18001KT 02/M02 A3023 RMK A01 T00161017  RH  078%=      5-min Rain = 0
KJU1 130902Z 18001KT 02/M02 A3023 RMK A01 T00161017  RH  079%=      5-min Rain = 0
KJU1 130903Z 18001KT 02/M02 A3023 RMK A01 T00161017  RH  079%=      5-min Rain = 0
KJU1 130904Z 18001KT 02/M01 A3023 RMK A01 T00181014  RH  079%=      5-min Rain = 0
KJU1 130905Z 18001KT 02/M01 A3023 RMK A01 T00181013  RH  080%=      5-min Rain = 0
KJU1 130906Z 19000KT 02/M01 A3023 RMK A01 T00191012  RH  080%=      5-min Rain = 0
KJU1 130907Z 00000KT 02/M01 A3023 RMK A01 T00201011  RH  080%=      5-min Rain = 0
KJU1 130908Z 00000KT 02/M01 A3023 RMK A01 T00201012  RH  080%=      5-min Rain = 0
KJU1 130909Z 00000KT 02/M01 A3023 RMK A01 T00201013  RH  079%=      5-min Rain = 0
KJU1 130910Z 24000KT 02/M01 A3023 RMK A01 T00191014  RH  079%=      5-min Rain = 0
KJU1 130911Z 24000KT 02/M02 A3023 RMK A01 T00191015  RH  079%=      5-min Rain = 0
KJU1 130912Z 00000KT 02/M01 A3023 RMK A01 T00181014  RH  079%=      5-min Rain = 0
KJU1 130913Z 24000KT 02/M01 A3023 RMK A01 T00181014  RH  079%=      5-min Rain = 0
KJU1 130914Z 00000KT 02/M01 A3023 RMK A01 T00181014  RH  079%=      5-min Rain = 0
KJU1 130915Z 00000KT 02/M01 A3022 RMK A01 T00181014  RH  079%=      5-min Rain = 0
KJU1 130916Z 00000KT 02/M01 A3022 RMK A01 T00181014  RH  079%=      5-min Rain = 0
KJU1 130917Z 00000KT 02/M01 A3022 RMK A01 T00181013  RH  079%=      5-min Rain = 0
KJU1 130918Z 00000KT 02/M01 A3022 RMK A01 T00181013  RH  080%=      5-min Rain = 0
KJU1 130919Z 00000KT 02/M01 A3022 RMK A01 T00191012  RH  080%=      5-min Rain = 0
KJU1 130920Z 00000KT 02/M01 A3022 RMK A01 T00191012  RH  080%=      5-min Rain = 0
KJU1 130921Z 00000KT 02/M01 A3022 RMK A01 T00191013  RH  079%=      5-min Rain = 0
KJU1 130922Z 00000KT 02/M01 A3022 RMK A01 T00191014  RH  079%=      5-min Rain = 0
KJU1 130923Z 00000KT 02/M02 A3023 RMK A01 T00181015  RH  079%=      5-min Rain = 0
KJU1 130924Z 00000KT 02/M02 A3023 RMK A01 T00171016  RH  078%=      5-min Rain = 0
KJU1 130925Z 00000KT 02/M02 A3023 RMK A01 T00171016  RH  079%=      5-min Rain = 0
KJU1 130926Z 00000KT 02/M02 A3023 RMK A01 T00161017  RH  079%=      5-min Rain = 0
KJU1 130927Z 00000KT 02/M02 A3023 RMK A01 T00161017  RH  079%=      5-min Rain = 0
KJU1 130928Z 00000KT 02/M02 A3023 RMK A01 T00151017  RH  079%=      5-min Rain = 0
KJU1 130929Z 00000KT 02/M02 A3023 RMK A01 T00151018  RH  079%=      5-min Rain = 0
KJU1 130930Z 00000KT 02/M02 A3023 RMK A01 T00151017  RH  079%=      5-min Rain = 0
KJU1 130931Z 00000KT 01/M02 A3023 RMK A01 T00141017  RH  079%=      5-min Rain = 0
KJU1 130932Z 00000KT 01/M02 A3023 RMK A01 T00141017  RH  080%=      5-min Rain = 0
KJU1 130933Z 00000KT 02/M02 A3023 RMK A01 T00151015  RH  080%=      5-min Rain = 0
KJU1 130934Z 00000KT 02/M01 A3023 RMK A01 T00161014  RH  080%=      5-min Rain = 0
KJU1 130935Z 00000KT 02/M01 A3023 RMK A01 T00161014  RH  080%=      5-min Rain = 0
KJU1 130936Z 00000KT 02/M02 A3023 RMK A01 T00161015  RH  080%=      5-min Rain = 0
KJU1 130937Z 00000KT 02/M02 A3023 RMK A01 T00161016  RH  080%=      5-min Rain = 0
KJU1 130938Z 00000KT 02/M02 A3023 RMK A01 T00161015  RH  080%=      5-min Rain = 0
KJU1 130939Z 00000KT 02/M02 A3023 RMK A01 T00161015  RH  080%=      5-min Rain = 0
KJU1 130940Z 20000KT 02/M02 A3023 RMK A01 T00161015  RH  080%=      5-min Rain = 0
KJU1 130941Z 18001KT 02/M01 A3023 RMK A01 T00161014  RH  080%=      5-min Rain = 0
KJU1 130942Z 18001KT 02/M02 A3023 RMK A01 T00161015  RH  080%=      5-min Rain = 0
KJU1 130943Z 19002KT 02/M02 A3023 RMK A01 T00151016  RH  080%=      5-min Rain = 0
KJU1 130944Z 19002KT 02/M02 A3023 RMK A01 T00151016  RH  080%=      5-min Rain = 0
KJU1 130945Z 19002KT 02/M02 A3023 RMK A01 T00151015  RH  080%=      5-min Rain = 0
KJU1 130946Z 19002KT 02/M02 A3023 RMK A01 T00151015  RH  081%=      5-min Rain = 0
KJU1 130947Z 20002KT 02/M02 A3023 RMK A01 T00151015  RH  081%=      5-min Rain = 0
KJU1 130948Z 20002KT 02/M01 A3023 RMK A01 T00161014  RH  081%=      5-min Rain = 0
KJU1 130949Z 20002KT 02/M01 A3023 RMK A01 T00161013  RH  081%=      5-min Rain = 0
KJU1 130950Z 20002KT 02/M01 A3023 RMK A01 T00161014  RH  080%=      5-min Rain = 0
KJU1 130951Z 20001KT 02/M01 A3023 RMK A01 T00171014  RH  080%=      5-min Rain = 0
KJU1 130952Z 20001KT 02/M01 A3023 RMK A01 T00171014  RH  080%=      5-min Rain = 0
KJU1 130953Z 20001KT 02/M01 A3023 RMK A01 T00171013  RH  081%=      5-min Rain = 0
KJU1 130954Z 20001KT 02/M01 A3023 RMK A01 T00171013  RH  081%=      5-min Rain = 0
KJU1 130955Z 20001KT 02/M01 A3023 RMK A01 T00161014  RH  081%=      5-min Rain = 0
KJU1 130956Z 20001KT 02/M01 A3023 RMK A01 T00161014  RH  081%=      5-min Rain = 0
KJU1 130957Z 20002KT 02/M01 A3023 RMK A01 T00161014  RH  081%=      5-min Rain = 0
KJU1 130958Z 20001KT 02/M01 A3023 RMK A01 T00161014  RH  081%=      5-min Rain = 0
KJU1 130959Z 19002KT 02/M01 A3023 RMK A01 T00161014  RH  081%=      5-min Rain = 0
KJU1 131000Z 19001KT 02/M01 A3023 RMK A01 T00161014  RH  081%=      5-min Rain = 0
KJU1 131001Z 19001KT 02/M01 A3023 RMK A01 T00161014  RH  081%=      5-min Rain = 0
KJU1 131002Z 19001KT 02/M01 A3023 RMK A01 T00161013  RH  081%=      5-min Rain = 0
KJU1 131003Z 19001KT 02/M01 A3023 RMK A01 T00161013  RH  081%=      5-min Rain = 0
KJU1 131004Z 19001KT 02/M01 A3023 RMK A01 T00161013  RH  081%=      5-min Rain = 0
KJU1 131005Z 19001KT 02/M01 A3023 RMK A01 T00161013  RH  081%=      5-min Rain = 0
KJU1 131006Z 19001KT 02/M01 A3023 RMK A01 T00161013  RH  081%=      5-min Rain = 0
KJU1 131007Z 19001KT 02/M01 A3023 RMK A01 T00161013  RH  081%=      5-min Rain = 0
KJU1 131008Z 19001KT 02/M01 A3023 RMK A01 T00161013  RH  081%=      5-min Rain = 0
KJU1 131009Z 19001KT 02/M01 A3023 RMK A01 T00161013  RH  081%=      5-min Rain = 0
KJU1 131010Z 19001KT 02/M01 A3023 RMK A01 T00161013  RH  081%=      5-min Rain = 0
KJU1 131011Z 19001KT 02/M01 A3023 RMK A01 T00161012  RH  081%=      5-min Rain = 0
KJU1 131012Z 19000KT 02/M01 A3023 RMK A01 T00161013  RH  081%=      5-min Rain = 0
KJU1 131013Z 00000KT 02/M01 A3023 RMK A01 T00161013  RH  081%=      5-min Rain = 0
KJU1 131014Z 00000KT 02/M01 A3023 RMK A01 T00161013  RH  081%=      5-min Rain = 0
KJU1 131015Z 00000KT 02/M01 A3023 RMK A01 T00161012  RH  081%=      5-min Rain = 0
KJU1 131016Z 00000KT 02/M01 A3023 RMK A01 T00171012  RH  081%=      5-min Rain = 0
KJU1 131017Z 00000KT 02/M01 A3023 RMK A01 T00161012  RH  081%=      5-min Rain = 0
KJU1 131018Z 00000KT 02/M01 A3023 RMK A01 T00161013  RH  081%=      5-min Rain = 0
KJU1 131019Z 00000KT 02/M01 A3023 RMK A01 T00171013  RH  081%=      5-min Rain = 0
KJU1 131020Z 00000KT 02/M01 A3023 RMK A01 T00171012  RH  081%=      5-min Rain = 0
KJU1 131021Z 00000KT 02/M01 A3023 RMK A01 T00171012  RH  081%=      5-min Rain = 0
KJU1 131022Z 00000KT 02/M01 A3023 RMK A01 T00181012  RH  081%=      5-min Rain = 0
KJU1 131023Z 16000KT 02/M01 A3023 RMK A01 T00181011  RH  081%=      5-min Rain = 0
KJU1 131024Z 06001KT 02/M01 A3023 RMK A01 T00191011  RH  081%=      5-min Rain = 0
KJU1 131025Z 05002KT 02/M01 A3023 RMK A01 T00201010  RH  081%=      5-min Rain = 0
KJU1 131026Z 04002KT 02/M01 A3023 RMK A01 T00201009  RH  081%=      5-min Rain = 0
KJU1 131027Z 04002KT 02/M01 A3023 RMK A01 T00211008  RH  081%=      5-min Rain = 0
KJU1 131028Z 03003KT 02/M01 A3023 RMK A01 T00221009  RH  080%=      5-min Rain = 0
KJU1 131029Z 03003KT 02/M01 A3024 RMK A01 T00221009  RH  080%=      5-min Rain = 0
KJU1 131030Z 03002KT 02/M01 A3024 RMK A01 T00221010  RH  079%=      5-min Rain = 0
KJU1 131031Z 02002KT 02/M01 A3024 RMK A01 T00231010  RH  079%=      5-min Rain = 0
KJU1 131032Z 02002KT 02/M01 A3024 RMK A01 T00231010  RH  079%=      5-min Rain = 0
KJU1 131033Z 02002KT 02/M01 A3024 RMK A01 T00241010  RH  078%=      5-min Rain = 0
KJU1 131034Z 02002KT 02/M01 A3024 RMK A01 T00241010  RH  078%=      5-min Rain = 0
KJU1 131035Z 01002KT 02/M01 A3024 RMK A01 T00241009  RH  078%=      5-min Rain = 0
KJU1 131036Z 00001KT 02/M01 A3024 RMK A01 T00241009  RH  078%=      5-min Rain = 0
KJU1 131037Z 36001KT 03/M01 A3024 RMK A01 T00251008  RH  079%=      5-min Rain = 0
KJU1 131038Z 00002KT 03/M01 A3024 RMK A01 T00251009  RH  078%=      5-min Rain = 0
KJU1 131039Z 01002KT 03/M01 A3024 RMK A01 T00251009  RH  078%=      5-min Rain = 0
KJU1 131040Z 01002KT 03/M01 A3024 RMK A01 T00251008  RH  078%=      5-min Rain = 0
KJU1 131041Z 01001KT 03/M01 A3024 RMK A01 T00261008  RH  078%=      5-min Rain = 0
KJU1 131042Z 01001KT 03/M01 A3024 RMK A01 T00261008  RH  079%=      5-min Rain = 0
KJU1 131043Z 01000KT 03/M01 A3024 RMK A01 T00261008  RH  078%=      5-min Rain = 0
KJU1 131044Z 00000KT 03/M01 A3024 RMK A01 T00261008  RH  078%=      5-min Rain = 0
KJU1 131045Z 00000KT 03/M01 A3024 RMK A01 T00261009  RH  078%=      5-min Rain = 0
KJU1 131046Z 00000KT 03/M01 A3024 RMK A01 T00261010  RH  077%=      5-min Rain = 0
KJU1 131047Z 01000KT 03/M01 A3024 RMK A01 T00251010  RH  077%=      5-min Rain = 0
KJU1 131048Z 01001KT 03/M01 A3024 RMK A01 T00251010  RH  078%=      5-min Rain = 0
KJU1 131049Z 01001KT 03/M01 A3024 RMK A01 T00251009  RH  078%=      5-min Rain = 0
KJU1 131050Z 01000KT 03/M01 A3024 RMK A01 T00251009  RH  078%=      5-min Rain = 0
KJU1 131051Z 01000KT 03/M01 A3024 RMK A01 T00251009  RH  078%=      5-min Rain = 0
KJU1 131052Z 01000KT 03/M01 A3024 RMK A01 T00251009  RH  079%=      5-min Rain = 0
KJU1 131053Z 00000KT 03/M01 A3024 RMK A01 T00251008  RH  079%=      5-min Rain = 0
KJU1 131054Z 00000KT 02/M01 A3024 RMK A01 T00241009  RH  079%=      5-min Rain = 0
KJU1 131055Z 00000KT 02/M01 A3024 RMK A01 T00231010  RH  079%=      5-min Rain = 0
KJU1 131056Z 00000KT 02/M01 A3024 RMK A01 T00221011  RH  079%=      5-min Rain = 0
KJU1 131057Z 00000KT 02/M01 A3024 RMK A01 T00221011  RH  079%=      5-min Rain = 0
KJU1 131058Z 00000KT 02/M01 A3024 RMK A01 T00221011  RH  079%=      5-min Rain = 0
KJU1 131059Z 00000KT 02/M01 A3024 RMK A01 T00211010  RH  079%=      5-min Rain = 0
KJU1 131100Z 00000KT 02/M01 A3024 RMK A01 T00211010  RH  080%=      5-min Rain = 0
KJU1 131101Z 00000KT 02/M01 A3024 RMK A01 T00211010  RH  080%=      5-min Rain = 0
KJU1 131102Z 00000KT 02/M01 A3024 RMK A01 T00211009  RH  080%=      5-min Rain = 0
KJU1 131103Z 00000KT 02/M01 A3024 RMK A01 T00211010  RH  080%=      5-min Rain = 0
KJU1 131104Z 00000KT 02/M01 A3024 RMK A01 T00211009  RH  080%=      5-min Rain = 0
KJU1 131105Z 01000KT 02/M01 A3024 RMK A01 T00211009  RH  080%=      5-min Rain = 0
KJU1 131106Z 00000KT 02/M01 A3024 RMK A01 T00211009  RH  080%=      5-min Rain = 0
KJU1 131107Z 32000KT 02/M01 A3024 RMK A01 T00211009  RH  080%=      5-min Rain = 0
KJU1 131108Z 32001KT 02/M01 A3024 RMK A01 T00211008  RH  081%=      5-min Rain = 0
KJU1 131109Z 32002KT 02/M01 A3024 RMK A01 T00221008  RH  080%=      5-min Rain = 0
KJU1 131110Z 32002KT 02/M01 A3024 RMK A01 T00221009  RH  080%=      5-min Rain = 0
KJU1 131111Z 32002KT 02/M01 A3024 RMK A01 T00231009  RH  080%=      5-min Rain = 0
KJU1 131112Z 33002KT 02/M01 A3024 RMK A01 T00231009  RH  079%=      5-min Rain = 0
KJU1 131113Z 33001KT 02/M01 A3024 RMK A01 T00231009  RH  079%=      5-min Rain = 0
KJU1 131114Z 34000KT 02/M01 A3025 RMK A01 T00231009  RH  079%=      5-min Rain = 0
KJU1 131115Z 00000KT 02/M01 A3025 RMK A01 T00231009  RH  079%=      5-min Rain = 0
KJU1 131116Z 00000KT 02/M01 A3024 RMK A01 T00241008  RH  080%=      5-min Rain = 0
KJU1 131117Z 00000KT 02/M01 A3024 RMK A01 T00231008  RH  080%=      5-min Rain = 0
KJU1 131118Z 00000KT 02/M01 A3024 RMK A01 T00231008  RH  080%=      5-min Rain = 0
KJU1 131119Z 00000KT 02/M01 A3024 RMK A01 T00231008  RH  079%=      5-min Rain = 0
KJU1 131120Z 34000KT 02/M01 A3024 RMK A01 T00231008  RH  080%=      5-min Rain = 0
KJU1 131121Z 01001KT 02/M01 A3024 RMK A01 T00231008  RH  080%=      5-min Rain = 0
KJU1 131122Z 01001KT 02/M01 A3025 RMK A01 T00241008  RH  080%=      5-min Rain = 0
KJU1 131123Z 01001KT 02/M01 A3025 RMK A01 T00241007  RH  080%=      5-min Rain = 0
KJU1 131124Z 01001KT 02/M01 A3025 RMK A01 T00241007  RH  080%=      5-min Rain = 0
KJU1 131125Z 01001KT 02/M01 A3025 RMK A01 T00241006  RH  080%=      5-min Rain = 0
KJU1 131126Z 01001KT 02/M01 A3025 RMK A01 T00241006  RH  080%=      5-min Rain = 0
KJU1 131127Z 01002KT 02/M01 A3025 RMK A01 T00241006  RH  080%=      5-min Rain = 0
KJU1 131128Z 01002KT 02/M01 A3025 RMK A01 T00241006  RH  080%=      5-min Rain = 0
KJU1 131129Z 01002KT 03/M01 A3025 RMK A01 T00251005  RH  080%=      5-min Rain = 0
KJU1 131130Z 01002KT 03/M01 A3025 RMK A01 T00261005  RH  080%=      5-min Rain = 0
KJU1 131131Z 01002KT 03/M00 A3025 RMK A01 T00261004  RH  080%=      5-min Rain = 0
KJU1 131132Z 01001KT 03/M00 A3025 RMK A01 T00271003  RH  081%=      5-min Rain = 0
KJU1 131133Z 01001KT 03/M00 A3025 RMK A01 T00281002  RH  080%=      5-min Rain = 0
KJU1 131134Z 35001KT 03/M00 A3025 RMK A01 T00291002  RH  080%=      5-min Rain = 0
KJU1 131135Z 35001KT 03/M00 A3025 RMK A01 T00291003  RH  080%=      5-min Rain = 0
KJU1 131136Z 34001KT 03/M00 A3025 RMK A01 T00301003  RH  079%=      5-min Rain = 0
KJU1 131137Z 33001KT 03/M00 A3025 RMK A01 T00301003  RH  079%=      5-min Rain = 0
KJU1 131138Z 35002KT 03/M00 A3025 RMK A01 T00311003  RH  079%=      5-min Rain = 0
KJU1 131139Z 01002KT 03/M00 A3025 RMK A01 T00311003  RH  078%=      5-min Rain = 0
KJU1 131140Z 01002KT 03/M00 A3025 RMK A01 T00311004  RH  077%=      5-min Rain = 0
KJU1 131141Z 02002KT 03/M00 A3025 RMK A01 T00321004  RH  077%=      5-min Rain = 0
KJU1 131142Z 02002KT 03/M00 A3026 RMK A01 T00321004  RH  077%=      5-min Rain = 0
KJU1 131143Z 03002KT 03/M01 A3026 RMK A01 T00321005  RH  077%=      5-min Rain = 0
KJU1 131144Z 04002KT 03/M01 A3026 RMK A01 T00321005  RH  077%=      5-min Rain = 0
KJU1 131145Z 04002KT 03/M01 A3026 RMK A01 T00321005  RH  077%=      5-min Rain = 0
KJU1 131146Z 04002KT 03/M01 A3026 RMK A01 T00321005  RH  077%=      5-min Rain = 0
KJU1 131147Z 04002KT 03/M01 A3026 RMK A01 T00321006  RH  076%=      5-min Rain = 0
KJU1 131148Z 03002KT 03/M01 A3026 RMK A01 T00321006  RH  076%=      5-min Rain = 0
KJU1 131149Z 03002KT 03/M01 A3026 RMK A01 T00321006  RH  076%=      5-min Rain = 0
KJU1 131150Z 03002KT 03/M01 A3026 RMK A01 T00321006  RH  076%=      5-min Rain = 0
KJU1 131151Z 03003KT 03/M01 A3026 RMK A01 T00321006  RH  076%=      5-min Rain = 0
KJU1 131152Z 03002KT 03/M01 A3026 RMK A01 T00321006  RH  076%=      5-min Rain = 0
KJU1 131153Z 03002KT 03/M01 A3026 RMK A01 T00331006  RH  076%=      5-min Rain = 0
KJU1 131154Z 03002KT 03/M01 A3026 RMK A01 T00321006  RH  076%=      5-min Rain = 0
KJU1 131155Z 03002KT 03/M01 A3026 RMK A01 T00331006  RH  076%=      5-min Rain = 0
KJU1 131156Z 03002KT 03/M01 A3026 RMK A01 T00321006  RH  076%=      5-min Rain = 0
KJU1 131157Z 03002KT 03/M01 A3026 RMK A01 T00331006  RH  076%=      5-min Rain = 0
KJU1 131158Z 03002KT 03/M01 A3026 RMK A01 T00331006  RH  076%=      5-min Rain = 0
KJU1 131159Z 03002KT 03/M01 A3026 RMK A01 T00331006  RH  075%=      5-min Rain = 0
KJU1 131200Z 03002KT 03/M01 A3026 RMK A01 T00331006  RH  075%=      5-min Rain = 0
KJU1 131201Z 03001KT 03/M01 A3026 RMK A01 T00331006  RH  075%=      5-min Rain = 0
KJU1 131202Z 03001KT 03/M01 A3026 RMK A01 T00331006  RH  075%=      5-min Rain = 0
KJU1 131203Z 04001KT 03/M01 A3026 RMK A01 T00331006  RH  075%=      5-min Rain = 0
KJU1 131204Z 04001KT 03/M01 A3026 RMK A01 T00331007  RH  075%=      5-min Rain = 0
KJU1 131205Z 04002KT 03/M01 A3026 RMK A01 T00331006  RH  075%=      5-min Rain = 0
KJU1 131206Z 03002KT 03/M01 A3026 RMK A01 T00331006  RH  075%=      5-min Rain = 0
KJU1 131207Z 04002KT 03/M01 A3026 RMK A01 T00331006  RH  076%=      5-min Rain = 0
KJU1 131208Z 03002KT 03/M01 A3026 RMK A01 T00331006  RH  076%=      5-min Rain = 0
KJU1 131209Z 03002KT 03/M01 A3026 RMK A01 T00331006  RH  076%=      5-min Rain = 0
KJU1 131210Z 04002KT 03/M01 A3026 RMK A01 T00331006  RH  076%=      5-min Rain = 0
KJU1 131211Z 04003KT 03/M01 A3026 RMK A01 T00321006  RH  076%=      5-min Rain = 0
KJU1 131212Z 04003KT 03/M01 A3026 RMK A01 T00321006  RH  076%=      5-min Rain = 0
KJU1 131213Z 04003KT 03/M01 A3026 RMK A01 T00321006  RH  076%=      5-min Rain = 0
KJU1 131214Z 04002KT 03/M01 A3026 RMK A01 T00311006  RH  077%=      5-min Rain = 0
KJU1 131215Z 04002KT 03/M01 A3026 RMK A01 T00311006  RH  077%=      5-min Rain = 0
KJU1 131216Z 04002KT 03/M01 A3026 RMK A01 T00311006  RH  077%=      5-min Rain = 0
KJU1 131217Z 04001KT 03/M01 A3026 RMK A01 T00311005  RH  077%=      5-min Rain = 0
KJU1 131218Z 03001KT 03/M01 A3026 RMK A01 T00311006  RH  077%=      5-min Rain = 0
KJU1 131219Z 02001KT 03/M01 A3026 RMK A01 T00311006  RH  077%=      5-min Rain = 0
KJU1 131220Z 00000KT 03/M01 A3026 RMK A01 T00311006  RH  077%=      5-min Rain = 0
KJU1 131221Z 00001KT 03/M01 A3026 RMK A01 T00311006  RH  077%=      5-min Rain = 0
KJU1 131222Z 00001KT 03/M01 A3026 RMK A01 T00311006  RH  077%=      5-min Rain = 0
KJU1 131223Z 00001KT 03/M01 A3026 RMK A01 T00311006  RH  077%=      5-min Rain = 0
KJU1 131224Z 00001KT 03/M01 A3026 RMK A01 T00311006  RH  077%=      5-min Rain = 0
KJU1 131225Z 00001KT 03/M01 A3027 RMK A01 T00311006  RH  077%=      5-min Rain = 0
KJU1 131226Z 35001KT 03/M01 A3027 RMK A01 T00311007  RH  077%=      5-min Rain = 0
KJU1 131227Z 00001KT 03/M01 A3027 RMK A01 T00311006  RH  077%=      5-min Rain = 0
KJU1 131228Z 02001KT 03/M01 A3027 RMK A01 T00311006  RH  076%=      5-min Rain = 0
KJU1 131229Z 05001KT 03/M01 A3027 RMK A01 T00311007  RH  076%=      5-min Rain = 0
KJU1 131230Z 04001KT 03/M01 A3027 RMK A01 T00321007  RH  076%=      5-min Rain = 0
KJU1 131231Z 04001KT 03/M01 A3027 RMK A01 T00321007  RH  076%=      5-min Rain = 0
KJU1 131232Z 04001KT 03/M01 A3027 RMK A01 T00311007  RH  076%=      5-min Rain = 0
KJU1 131233Z 03001KT 03/M01 A3027 RMK A01 T00301007  RH  077%=      5-min Rain = 0
KJU1 131234Z 03001KT 03/M01 A3027 RMK A01 T00291007  RH  077%=      5-min Rain = 0
KJU1 131235Z 03001KT 03/M01 A3027 RMK A01 T00281007  RH  077%=      5-min Rain = 0
KJU1 131236Z 03001KT 03/M01 A3027 RMK A01 T00281007  RH  078%=      5-min Rain = 0
KJU1 131237Z 03001KT 03/M01 A3027 RMK A01 T00271007  RH  078%=      5-min Rain = 0
KJU1 131238Z 03001KT 03/M01 A3027 RMK A01 T00271007  RH  078%=      5-min Rain = 0
KJU1 131239Z 03001KT 03/M01 A3027 RMK A01 T00271007  RH  078%=      5-min Rain = 0
KJU1 131240Z 03001KT 03/M01 A3027 RMK A01 T00261008  RH  078%=      5-min Rain = 0
KJU1 131241Z 03001KT 03/M01 A3027 RMK A01 T00261009  RH  078%=      5-min Rain = 0
KJU1 131242Z 03001KT 03/M01 A3027 RMK A01 T00251009  RH  078%=      5-min Rain = 0
KJU1 131243Z 03002KT 03/M01 A3027 RMK A01 T00251009  RH  079%=      5-min Rain = 0
KJU1 131244Z 03002KT 02/M01 A3027 RMK A01 T00241009  RH  079%=      5-min Rain = 0
KJU1 131245Z 03002KT 02/M01 A3027 RMK A01 T00241009  RH  079%=      5-min Rain = 0
KJU1 131246Z 03002KT 02/M01 A3027 RMK A01 T00231009  RH  079%=      5-min Rain = 0
KJU1 131247Z 03002KT 02/M01 A3027 RMK A01 T00231009  RH  079%=      5-min Rain = 0
KJU1 131248Z 03001KT 02/M01 A3028 RMK A01 T00231010  RH  079%=      5-min Rain = 0
KJU1 131249Z 03001KT 02/M01 A3028 RMK A01 T00221010  RH  079%=      5-min Rain = 0
KJU1 131250Z 02001KT 02/M01 A3028 RMK A01 T00211011  RH  079%=      5-min Rain = 0
KJU1 131251Z 03001KT 02/M01 A3028 RMK A01 T00201012  RH  079%=      5-min Rain = 0
KJU1 131252Z 03001KT 02/M01 A3028 RMK A01 T00191012  RH  080%=      5-min Rain = 0
KJU1 131253Z 03001KT 02/M01 A3028 RMK A01 T00191011  RH  080%=      5-min Rain = 0
KJU1 131254Z 03001KT 02/M01 A3028 RMK A01 T00191010  RH  081%=      5-min Rain = 0
KJU1 131255Z 03001KT 02/M01 A3028 RMK A01 T00191010  RH  081%=      5-min Rain = 0
KJU1 131256Z 04002KT 02/M01 A3028 RMK A01 T00191010  RH  081%=      5-min Rain = 0
KJU1 131257Z 03002KT 02/M01 A3028 RMK A01 T00191009  RH  081%=      5-min Rain = 0
KJU1 131258Z 03001KT 02/M01 A3028 RMK A01 T00201008  RH  081%=      5-min Rain = 0
KJU1 131259Z 03001KT 02/M01 A3028 RMK A01 T00201009  RH  081%=      5-min Rain = 0
KJU1 131300Z 04001KT 02/M01 A3028 RMK A01 T00191010  RH  081%=      5-min Rain = 0
KJU1 131301Z 04001KT 02/M01 A3028 RMK A01 T00181012  RH  081%=      5-min Rain = 0
KJU1 131302Z 04001KT 02/M01 A3028 RMK A01 T00171012  RH  081%=      5-min Rain = 0
KJU1 131303Z 04002KT 02/M01 A3028 RMK A01 T00171012  RH  081%=      5-min Rain = 0
KJU1 131304Z 04001KT 02/M01 A3028 RMK A01 T00171011  RH  081%=      5-min Rain = 0
KJU1 131305Z 04001KT 02/M01 A3028 RMK A01 T00171011  RH  082%=      5-min Rain = 0
KJU1 131306Z 04001KT 02/M01 A3028 RMK A01 T00171010  RH  082%=      5-min Rain = 0
KJU1 131307Z 04001KT 02/M01 A3028 RMK A01 T00181010  RH  082%=      5-min Rain = 0
KJU1 131308Z 04002KT 02/M01 A3028 RMK A01 T00191008  RH  082%=      5-min Rain = 0
KJU1 131309Z 04002KT 02/M01 A3028 RMK A01 T00191008  RH  082%=      5-min Rain = 0
KJU1 131310Z 05002KT 02/M01 A3028 RMK A01 T00201007  RH  082%=      5-min Rain = 0
KJU1 131311Z 05002KT 02/M01 A3028 RMK A01 T00221006  RH  082%=      5-min Rain = 0
KJU1 131312Z 05002KT 02/M01 A3028 RMK A01 T00231006  RH  081%=      5-min Rain = 0
KJU1 131313Z 04002KT 02/M01 A3029 RMK A01 T00241005  RH  081%=      5-min Rain = 0
KJU1 131314Z 03001KT 03/M01 A3029 RMK A01 T00251005  RH  080%=      5-min Rain = 0
KJU1 131315Z 03001KT 03/M01 A3029 RMK A01 T00261005  RH  080%=      5-min Rain = 0
KJU1 131316Z 03001KT 03/M01 A3029 RMK A01 T00261005  RH  080%=      5-min Rain = 0
KJU1 131317Z 03001KT 03/M01 A3029 RMK A01 T00261006  RH  079%=      5-min Rain = 0
KJU1 131318Z 03002KT 03/M01 A3029 RMK A01 T00261006  RH  079%=      5-min Rain = 0
KJU1 131319Z 04002KT 03/M01 A3029 RMK A01 T00261006  RH  079%=      5-min Rain = 0
KJU1 131320Z 04002KT 03/M01 A3029 RMK A01 T00261006  RH  080%=      5-min Rain = 0
KJU1 131321Z 04002KT 03/M01 A3029 RMK A01 T00271005  RH  080%=      5-min Rain = 0
KJU1 131322Z 04002KT 03/M00 A3029 RMK A01 T00281004  RH  079%=      5-min Rain = 0
KJU1 131323Z 04002KT 03/M00 A3029 RMK A01 T00291004  RH  079%=      5-min Rain = 0
KJU1 131324Z 04002KT 03/M00 A3029 RMK A01 T00291004  RH  079%=      5-min Rain = 0
KJU1 131325Z 03002KT 03/M00 A3029 RMK A01 T00301003  RH  079%=      5-min Rain = 0
KJU1 131326Z 02001KT 03/M00 A3029 RMK A01 T00311002  RH  079%=      5-min Rain = 0
KJU1 131327Z 01001KT 03/M00 A3029 RMK A01 T00321002  RH  079%=      5-min Rain = 0
KJU1 131328Z 01002KT 03/M00 A3029 RMK A01 T00331002  RH  078%=      5-min Rain = 0
KJU1 131329Z 01001KT 03/M00 A3029 RMK A01 T00341002  RH  077%=      5-min Rain = 0
KJU1 131330Z 01001KT 04/M00 A3029 RMK A01 T00351002  RH  077%=      5-min Rain = 0
KJU1 131331Z 02001KT 04/M00 A3029 RMK A01 T00351002  RH  076%=      5-min Rain = 0
KJU1 131332Z 00001KT 04/M00 A3029 RMK A01 T00351002  RH  076%=      5-min Rain = 0
KJU1 131333Z 02001KT 04/M00 A3029 RMK A01 T00361003  RH  076%=      5-min Rain = 0
KJU1 131334Z 02001KT 04/M00 A3029 RMK A01 T00371003  RH  075%=      5-min Rain = 0
KJU1 131335Z 01001KT 04/M00 A3029 RMK A01 T00371002  RH  075%=      5-min Rain = 0
KJU1 131336Z 01001KT 04/M00 A303 RMK A01 T00381002  RH  075%=      5-min Rain = 0
KJU1 131337Z 02002KT 04/M00 A303 RMK A01 T00381003  RH  074%=      5-min Rain = 0
KJU1 131338Z 02001KT 04/M00 A303 RMK A01 T00391003  RH  074%=      5-min Rain = 0
KJU1 131339Z 01001KT 04/M00 A303 RMK A01 T00391002  RH  074%=      5-min Rain = 0
KJU1 131340Z 00000KT 04/M00 A303 RMK A01 T00401002  RH  074%=      5-min Rain = 0
KJU1 131341Z 01000KT 04/M00 A303 RMK A01 T00411002  RH  074%=      5-min Rain = 0
KJU1 131342Z 02000KT 04/M00 A303 RMK A01 T00411002  RH  074%=      5-min Rain = 0
KJU1 131343Z 02000KT 04/M00 A303 RMK A01 T00421002  RH  074%=      5-min Rain = 0
KJU1 131344Z 02000KT 04/M00 A303 RMK A01 T00421001  RH  074%=      5-min Rain = 0
KJU1 131345Z 02000KT 04/M00 A303 RMK A01 T00421001  RH  074%=      5-min Rain = 0
KJU1 131346Z 02000KT 04/M00 A303 RMK A01 T00421001  RH  074%=      5-min Rain = 0
KJU1 131347Z 03001KT 04/M00 A303 RMK A01 T00411001  RH  074%=      5-min Rain = 0
KJU1 131348Z 03000KT 04/M00 A303 RMK A01 T00411001  RH  074%=      5-min Rain = 0
KJU1 131349Z 03000KT 04/M00 A303 RMK A01 T00401001  RH  074%=      5-min Rain = 0
KJU1 131350Z 00000KT 04/M00 A303 RMK A01 T00401001  RH  075%=      5-min Rain = 0
KJU1 131351Z 00000KT 04/00 A303 RMK A01 T004000-0  RH  075%=      5-min Rain = 0
KJU1 131352Z 00000KT 04/M00 A303 RMK A01 T00401001  RH  075%=      5-min Rain = 0
KJU1 131353Z 03000KT 04/M00 A303 RMK A01 T00401001  RH  075%=      5-min Rain = 0
KJU1 131354Z 03000KT 04/M00 A303 RMK A01 T00391002  RH  075%=      5-min Rain = 0
KJU1 131355Z 03001KT 04/M00 A303 RMK A01 T00391001  RH  075%=      5-min Rain = 0
KJU1 131356Z 03000KT 04/M00 A303 RMK A01 T00391001  RH  075%=      5-min Rain = 0
KJU1 131357Z 00000KT 04/M00 A303 RMK A01 T00391001  RH  075%=      5-min Rain = 0
KJU1 131358Z 00000KT 04/M00 A303 RMK A01 T00391001  RH  075%=      5-min Rain = 0
KJU1 131359Z 11001KT 04/M00 A303 RMK A01 T00401001  RH  075%=      5-min Rain = 0
KJU1 131400Z 11001KT 04/00 A303 RMK A01 T00400000  RH  075%=      5-min Rain = 0
KJU1 131401Z 11001KT 04/00 A303 RMK A01 T004000-0  RH  075%=      5-min Rain = 0
KJU1 131402Z 00000KT 04/00 A303 RMK A01 T00410000  RH  075%=      5-min Rain = 0
KJU1 131403Z 11000KT 04/00 A303 RMK A01 T00420002  RH  075%=      5-min Rain = 0
KJU1 131404Z 00000KT 04/00 A303 RMK A01 T00440003  RH  075%=      5-min Rain = 0
KJU1 131405Z 00000KT 05/00 A303 RMK A01 T00450003  RH  074%=      5-min Rain = 0
KJU1 131406Z 00000KT 05/00 A303 RMK A01 T00460003  RH  074%=      5-min Rain = 0
KJU1 131407Z 08000KT 05/00 A303 RMK A01 T00470003  RH  073%=      5-min Rain = 0
KJU1 131408Z 07001KT 05/00 A3031 RMK A01 T00470003  RH  073%=      5-min Rain = 0
KJU1 131409Z 07001KT 05/00 A3031 RMK A01 T00470003  RH  073%=      5-min Rain = 0
KJU1 131410Z 00000KT 05/00 A3031 RMK A01 T00480002  RH  072%=      5-min Rain = 0
KJU1 131411Z 00000KT 05/00 A3031 RMK A01 T00480002  RH  072%=      5-min Rain = 0
KJU1 131412Z 07000KT 05/00 A3031 RMK A01 T00480002  RH  072%=      5-min Rain = 0
KJU1 131413Z 05000KT 05/00 A3031 RMK A01 T00500002  RH  072%=      5-min Rain = 0
KJU1 131414Z 02001KT 05/00 A3031 RMK A01 T00510003  RH  071%=      5-min Rain = 0
KJU1 131415Z 00000KT 05/00 A3031 RMK A01 T00510002  RH  071%=      5-min Rain = 0
KJU1 131416Z 00000KT 05/00 A3031 RMK A01 T00510002  RH  071%=      5-min Rain = 0
KJU1 131417Z 00000KT 05/00 A3031 RMK A01 T00520003  RH  071%=      5-min Rain = 0
KJU1 131418Z 00000KT 05/00 A3031 RMK A01 T00520001  RH  070%=      5-min Rain = 0
KJU1 131419Z 01000KT 05/00 A3031 RMK A01 T00520000  RH  069%=      5-min Rain = 0
KJU1 131420Z 00000KT 05/00 A3031 RMK A01 T00520001  RH  069%=      5-min Rain = 0
KJU1 131421Z 04001KT 05/00 A3031 RMK A01 T00540001  RH  069%=      5-min Rain = 0
KJU1 131422Z 03002KT 05/00 A3031 RMK A01 T00540001  RH  069%=      5-min Rain = 0
KJU1 131423Z 04002KT 05/00 A3031 RMK A01 T00540000  RH  068%=      5-min Rain = 0
KJU1 131424Z 03002KT 05/00 A3032 RMK A01 T00540000  RH  068%=      5-min Rain = 0
KJU1 131425Z 02002KT 05/00 A3031 RMK A01 T005400-0  RH  068%=      5-min Rain = 0
KJU1 131426Z 04002KT 05/00 A3031 RMK A01 T00540000  RH  068%=      5-min Rain = 0
KJU1 131427Z 04002KT 05/00 A3031 RMK A01 T00540002  RH  069%=      5-min Rain = 0
KJU1 131428Z 04002KT 06/00 A3031 RMK A01 T00550004  RH  070%=      5-min Rain = 0
KJU1 131429Z 04002KT 06/00 A3031 RMK A01 T00550004  RH  069%=      5-min Rain = 0
KJU1 131430Z 02002KT 06/00 A3031 RMK A01 T00550004  RH  069%=      5-min Rain = 0
KJU1 131431Z 02003KT 06/00 A3031 RMK A01 T00560003  RH  069%=      5-min Rain = 0
KJU1 131432Z 01002KT 06/00 A3031 RMK A01 T00560004  RH  069%=      5-min Rain = 0
KJU1 131433Z 02002KT 06/00 A3031 RMK A01 T00560003  RH  068%=      5-min Rain = 0
KJU1 131434Z 01002KT 06/00 A3031 RMK A01 T00560002  RH  068%=      5-min Rain = 0
KJU1 131435Z 00003KT 06/00 A3031 RMK A01 T00570002  RH  068%=      5-min Rain = 0
KJU1 131436Z 01002KT 06/00 A3031 RMK A01 T00580003  RH  068%=      5-min Rain = 0
KJU1 131437Z 36002KT 06/00 A3031 RMK A01 T00590003  RH  067%=      5-min Rain = 0
KJU1 131438Z 35002KT 06/00 A3031 RMK A01 T00590002  RH  067%=      5-min Rain = 0
KJU1 131439Z 35001KT 06/00 A3031 RMK A01 T00590003  RH  067%=      5-min Rain = 0
KJU1 131440Z 35001KT 06/00 A3031 RMK A01 T00600004  RH  067%=      5-min Rain = 0
KJU1 131441Z 33001KT 06/01 A3031 RMK A01 T00620005  RH  067%=      5-min Rain = 0
KJU1 131442Z 35001KT 06/01 A3032 RMK A01 T00640007  RH  067%=      5-min Rain = 0
KJU1 131443Z 03000KT 07/01 A3032 RMK A01 T00650006  RH  066%=      5-min Rain = 0
KJU1 131444Z 05001KT 07/01 A3032 RMK A01 T00660006  RH  065%=      5-min Rain = 0
KJU1 131445Z 05002KT 07/01 A3031 RMK A01 T00670006  RH  065%=      5-min Rain = 0
KJU1 131446Z 02002KT 07/01 A3031 RMK A01 T00670005  RH  064%=      5-min Rain = 0
KJU1 131447Z 36001KT 07/01 A3031 RMK A01 T00680005  RH  064%=      5-min Rain = 0
KJU1 131448Z 03002KT 07/00 A3031 RMK A01 T00680004  RH  064%=      5-min Rain = 0
KJU1 131449Z 01002KT 07/01 A3031 RMK A01 T00690005  RH  064%=      5-min Rain = 0
KJU1 131450Z 01002KT 07/01 A3031 RMK A01 T00700008  RH  064%=      5-min Rain = 0
KJU1 131451Z 00002KT 07/01 A3031 RMK A01 T00720007  RH  063%=      5-min Rain = 0
KJU1 131452Z 00002KT 07/01 A3031 RMK A01 T00720006  RH  063%=      5-min Rain = 0
KJU1 131453Z 01001KT 07/01 A3032 RMK A01 T00720006  RH  063%=      5-min Rain = 0
KJU1 131454Z 01002KT 07/00 A3031 RMK A01 T00710004  RH  062%=      5-min Rain = 0
KJU1 131455Z 01002KT 07/00 A3031 RMK A01 T00720004  RH  062%=      5-min Rain = 0
KJU1 131456Z 01001KT 07/00 A3031 RMK A01 T00710003  RH  062%=      5-min Rain = 0
KJU1 131457Z 34001KT 07/00 A3031 RMK A01 T00720003  RH  061%=      5-min Rain = 0
KJU1 131458Z 33002KT 07/00 A3031 RMK A01 T00730002  RH  061%=      5-min Rain = 0
KJU1 131459Z 35001KT 07/00 A3031 RMK A01 T00730003  RH  061%=      5-min Rain = 0
KJU1 131500Z 02001KT 07/00 A3031 RMK A01 T00740004  RH  061%=      5-min Rain = 0
KJU1 131501Z 03001KT 08/00 A3031 RMK A01 T00750004  RH  061%=      5-min Rain = 0
KJU1 131502Z 01001KT 08/00 A3031 RMK A01 T00750003  RH  060%=      5-min Rain = 0
KJU1 131503Z 01001KT 08/00 A3031 RMK A01 T00760002  RH  059%=      5-min Rain = 0
KJU1 131504Z 03002KT 08/00 A3031 RMK A01 T00770003  RH  060%=      5-min Rain = 0
KJU1 131505Z 03004KT 08/00 A3031 RMK A01 T00780002  RH  059%=      5-min Rain = 0
KJU1 131506Z 02003KT 08/00 A3031 RMK A01 T00780000  RH  058%=      5-min Rain = 0
KJU1 131507Z 01002KT 08/00 A3031 RMK A01 T00780000  RH  058%=      5-min Rain = 0
KJU1 131508Z 00003KT 08/00 A3031 RMK A01 T00780002  RH  059%=      5-min Rain = 0
KJU1 131509Z 01003KT 08/00 A3031 RMK A01 T007800-0  RH  058%=      5-min Rain = 0
KJU1 131510Z 35003KT 08/00 A3031 RMK A01 T00780000  RH  058%=      5-min Rain = 0
KJU1 131511Z 35004KT 08/00 A3031 RMK A01 T00800001  RH  057%=      5-min Rain = 0
KJU1 131512Z 35004KT 08/00 A3031 RMK A01 T00810000  RH  057%=      5-min Rain = 0
KJU1 131513Z 36003KT 08/00 A3031 RMK A01 T00810001  RH  057%=      5-min Rain = 0
KJU1 131514Z 00002KT 08/00 A3031 RMK A01 T00820002  RH  057%=      5-min Rain = 0
KJU1 131515Z 01003KT 08/00 A3031 RMK A01 T00830002  RH  057%=      5-min Rain = 0
KJU1 131516Z 01003KT 08/00 A3031 RMK A01 T00840003  RH  057%=      5-min Rain = 0
KJU1 131517Z 01002KT 09/00 A3031 RMK A01 T00860004  RH  056%=      5-min Rain = 0
KJU1 131518Z 36002KT 09/00 A3032 RMK A01 T00870003  RH  056%=      5-min Rain = 0
KJU1 131519Z 36003KT 09/00 A3032 RMK A01 T00870002  RH  055%=      5-min Rain = 0
KJU1 131520Z 34002KT 09/00 A3032 RMK A01 T00870002  RH  055%=      5-min Rain = 0
KJU1 131521Z 34003KT 09/00 A3032 RMK A01 T00870003  RH  055%=      5-min Rain = 0
KJU1 131522Z 00002KT 09/00 A3032 RMK A01 T00890003  RH  055%=      5-min Rain = 0
KJU1 131523Z 35002KT 09/00 A3032 RMK A01 T00890003  RH  054%=      5-min Rain = 0
KJU1 131524Z 34002KT 09/00 A3032 RMK A01 T00900003  RH  054%=      5-min Rain = 0
KJU1 131525Z 32002KT 09/00 A3032 RMK A01 T00910004  RH  055%=      5-min Rain = 0
KJU1 131526Z 34003KT 09/01 A3032 RMK A01 T00930005  RH  054%=      5-min Rain = 0
KJU1 131527Z 34002KT 09/00 A3032 RMK A01 T00930003  RH  053%=      5-min Rain = 0
KJU1 131528Z 31002KT 09/00 A3032 RMK A01 T00930003  RH  054%=      5-min Rain = 0
KJU1 131529Z 32002KT 09/01 A3032 RMK A01 T00930005  RH  054%=      5-min Rain = 0
KJU1 131530Z 35002KT 09/01 A3032 RMK A01 T00940006  RH  054%=      5-min Rain = 0
KJU1 131531Z 34002KT 10/01 A3032 RMK A01 T00960006  RH  054%=      5-min Rain = 0
KJU1 131532Z 33002KT 10/00 A3032 RMK A01 T00960003  RH  052%=      5-min Rain = 0
KJU1 131533Z 35003KT 10/00 A3032 RMK A01 T00960003  RH  052%=      5-min Rain = 0
KJU1 131534Z 00002KT 10/01 A3032 RMK A01 T00960005  RH  053%=      5-min Rain = 0
KJU1 131535Z 35003KT 10/01 A3032 RMK A01 T00970006  RH  053%=      5-min Rain = 0
KJU1 131536Z 35003KT 10/00 A3032 RMK A01 T00970004  RH  052%=      5-min Rain = 0
KJU1 131537Z 35003KT 10/00 A3032 RMK A01 T00980004  RH  052%=      5-min Rain = 0
KJU1 131538Z 01003KT 10/00 A3032 RMK A01 T00980004  RH  052%=      5-min Rain = 0
KJU1 131539Z 02003KT 10/01 A3032 RMK A01 T00990005  RH  052%=      5-min Rain = 0
KJU1 131540Z 01003KT 10/01 A3032 RMK A01 T00990006  RH  052%=      5-min Rain = 0
KJU1 131541Z 01002KT 10/01 A3032 RMK A01 T01000005  RH  052%=      5-min Rain = 0
KJU1 131542Z 01002KT 10/01 A3032 RMK A01 T01000005  RH  052%=      5-min Rain = 0
KJU1 131543Z 01003KT 10/01 A3032 RMK A01 T01010006  RH  052%=      5-min Rain = 0
KJU1 131544Z 03003KT 10/01 A3032 RMK A01 T01030008  RH  052%=      5-min Rain = 0
KJU1 131545Z 05003KT 11/01 A3032 RMK A01 T01050008  RH  051%=      5-min Rain = 0
KJU1 131546Z 05002KT 11/01 A3032 RMK A01 T01050008  RH  051%=      5-min Rain = 0
KJU1 131547Z 03003KT 11/01 A3032 RMK A01 T01060008  RH  051%=      5-min Rain = 0
KJU1 131548Z 03002KT 11/01 A3032 RMK A01 T01070006  RH  050%=      5-min Rain = 0
KJU1 131549Z 00003KT 11/01 A3032 RMK A01 T01070007  RH  050%=      5-min Rain = 0
KJU1 131550Z 01003KT 11/01 A3032 RMK A01 T01080006  RH  049%=      5-min Rain = 0
KJU1 131551Z 05002KT 11/01 A3032 RMK A01 T01080006  RH  049%=      5-min Rain = 0
KJU1 131552Z 03002KT 11/01 A3032 RMK A01 T01080005  RH  049%=      5-min Rain = 0
KJU1 131553Z 02002KT 11/01 A3032 RMK A01 T01080008  RH  050%=      5-min Rain = 0
KJU1 131554Z 01003KT 11/01 A3032 RMK A01 T01100011  RH  050%=      5-min Rain = 0
KJU1 131555Z 02004KT 11/01 A3032 RMK A01 T01120011  RH  050%=      5-min Rain = 0
KJU1 131556Z 01003KT 11/01 A3032 RMK A01 T01130008  RH  048%=      5-min Rain = 0
KJU1 131557Z 01003KT 11/01 A3032 RMK A01 T01120007  RH  048%=      5-min Rain = 0
KJU1 131558Z 01003KT 11/01 A3032 RMK A01 T01120006  RH  048%=      5-min Rain = 0
KJU1 131559Z 01003KT 11/01 A3032 RMK A01 T01120007  RH  049%=      5-min Rain = 0
KJU1 131600Z 02004KT 11/01 A3032 RMK A01 T01130008  RH  049%=      5-min Rain = 0
KJU1 131601Z 02003KT 11/01 A3032 RMK A01 T01130008  RH  048%=      5-min Rain = 0
KJU1 131602Z 01003KT 11/01 A3032 RMK A01 T01140009  RH  048%=      5-min Rain = 0
KJU1 131603Z 00004KT 12/01 A3032 RMK A01 T01170010  RH  048%=      5-min Rain = 0
KJU1 131604Z 35004KT 12/01 A3032 RMK A01 T01160008  RH  047%=      5-min Rain = 0
KJU1 131605Z 02004KT 12/01 A3032 RMK A01 T01160010  RH  048%=      5-min Rain = 0
KJU1 131606Z 01004KT 12/01 A3032 RMK A01 T01180013  RH  048%=      5-min Rain = 0
KJU1 131607Z 02005KT 12/01 A3032 RMK A01 T01210013  RH  047%=      5-min Rain = 0
KJU1 131608Z 02004KT 12/01 A3032 RMK A01 T01210010  RH  047%=      5-min Rain = 0
KJU1 131609Z 02004KT 12/01 A3032 RMK A01 T01190008  RH  047%=      5-min Rain = 0
KJU1 131610Z 02003KT 12/01 A3032 RMK A01 T01190013  RH  048%=      5-min Rain = 0
KJU1 131611Z 02003KT 12/01 A3032 RMK A01 T01210013  RH  047%=      5-min Rain = 0
KJU1 131612Z 02004KT 12/01 A3032 RMK A01 T01220012  RH  047%=      5-min Rain = 0
KJU1 131613Z 02004KT 12/01 A3032 RMK A01 T01220011  RH  047%=      5-min Rain = 0
KJU1 131614Z 02003KT 12/01 A3032 RMK A01 T01220011  RH  047%=      5-min Rain = 0
KJU1 131615Z 02005KT 12/01 A3032 RMK A01 T01230013  RH  047%=      5-min Rain = 0
KJU1 131616Z 03004KT 12/01 A3032 RMK A01 T01240012  RH  046%=      5-min Rain = 0
KJU1 131617Z 04003KT 12/01 A3032 RMK A01 T01240011  RH  046%=      5-min Rain = 0
KJU1 131618Z 04005KT 12/01 A3032 RMK A01 T01240011  RH  046%=      5-min Rain = 0
KJU1 131619Z 02003KT 12/01 A3032 RMK A01 T01240011  RH  046%=      5-min Rain = 0
KJU1 131620Z 01004KT 12/01 A3032 RMK A01 T01240010  RH  046%=      5-min Rain = 0
KJU1 131621Z 01003KT 12/01 A3032 RMK A01 T01240009  RH  045%=      5-min Rain = 0
KJU1 131622Z 00004KT 12/01 A3032 RMK A01 T01240010  RH  046%=      5-min Rain = 0
KJU1 131623Z 00004KT 12/01 A3032 RMK A01 T01230009  RH  046%=      5-min Rain = 0
KJU1 131624Z 36003KT 12/01 A3032 RMK A01 T01240011  RH  046%=      5-min Rain = 0
KJU1 131625Z 02005KT 13/01 A3032 RMK A01 T01260014  RH  046%=      5-min Rain = 0
KJU1 131626Z 02004KT 13/01 A3032 RMK A01 T01280010  RH  045%=      5-min Rain = 0
KJU1 131627Z 02004KT 13/01 A3032 RMK A01 T01270012  RH  045%=      5-min Rain = 0
KJU1 131628Z 35004KT 13/01 A3032 RMK A01 T01270012  RH  045%=      5-min Rain = 0
KJU1 131629Z 36004KT 13/01 A3032 RMK A01 T01270011  RH  045%=      5-min Rain = 0
KJU1 131630Z 02004KT 13/01 A3032 RMK A01 T01280013  RH  045%=      5-min Rain = 0
KJU1 131631Z 02004KT 13/01 A3032 RMK A01 T01300013  RH  045%=      5-min Rain = 0
KJU1 131632Z 02005KT 13/01 A3032 RMK A01 T01300012  RH  045%=      5-min Rain = 0
KJU1 131633Z 03003KT 13/01 A3032 RMK A01 T01310013  RH  044%=      5-min Rain = 0
KJU1 131634Z 02004KT 13/01 A3032 RMK A01 T01310011  RH  044%=      5-min Rain = 0
KJU1 131635Z 01005KT 13/01 A3032 RMK A01 T01310012  RH  044%=      5-min Rain = 0
KJU1 131636Z 00003KT 13/01 A3032 RMK A01 T01320014  RH  045%=      5-min Rain = 0
KJU1 131637Z 01004KT 13/01 A3032 RMK A01 T01330013  RH  044%=      5-min Rain = 0
KJU1 131638Z 35004KT 13/01 A3032 RMK A01 T01330012  RH  044%=      5-min Rain = 0
KJU1 131639Z 35005KT 13/01 A3032 RMK A01 T01320013  RH  044%=      5-min Rain = 0
KJU1 131640Z 34004KT 13/01 A3032 RMK A01 T01330013  RH  044%=      5-min Rain = 0
KJU1 131641Z 35004KT 13/01 A3032 RMK A01 T01340014  RH  044%=      5-min Rain = 0
KJU1 131642Z 01003KT 14/02 A3032 RMK A01 T01360015  RH  044%=      5-min Rain = 0
KJU1 131643Z 02004KT 14/01 A3032 RMK A01 T01380013  RH  043%=      5-min Rain = 0
KJU1 131644Z 02004KT 14/01 A3032 RMK A01 T01380013  RH  043%=      5-min Rain = 0
KJU1 131645Z 01004KT 14/01 A3032 RMK A01 T01380014  RH  043%=      5-min Rain = 0
KJU1 131646Z 00004KT 14/01 A3032 RMK A01 T01390014  RH  043%=      5-min Rain = 0
KJU1 131647Z 02005KT 14/02 A3032 RMK A01 T01400016  RH  043%=      5-min Rain = 0
KJU1 131648Z 03003KT 14/01 A3032 RMK A01 T01400013  RH  042%=      5-min Rain = 0
KJU1 131649Z 02003KT 14/01 A3032 RMK A01 T01390012  RH  042%=      5-min Rain = 0
KJU1 131650Z 02003KT 14/01 A3032 RMK A01 T01390013  RH  043%=      5-min Rain = 0
KJU1 131651Z 03004KT 14/02 A3032 RMK A01 T01410015  RH  042%=      5-min Rain = 0
KJU1 131652Z 05002KT 14/01 A3032 RMK A01 T01410012  RH  041%=      5-min Rain = 0
KJU1 131653Z 32001KT 14/01 A3032 RMK A01 T01410012  RH  041%=      5-min Rain = 0
KJU1 131654Z 35003KT 14/02 A3032 RMK A01 T01420015  RH  042%=      5-min Rain = 0
KJU1 131655Z 33003KT 15/02 A3032 RMK A01 T01460021  RH  043%=      5-min Rain = 0
KJU1 131656Z 33004KT 15/02 A3032 RMK A01 T01480015  RH  040%=      5-min Rain = 0
KJU1 131657Z 32005KT 15/01 A3032 RMK A01 T01460011  RH  040%=      5-min Rain = 0
KJU1 131658Z 31003KT 14/01 A3032 RMK A01 T01430008  RH  040%=      5-min Rain = 0
KJU1 131659Z 33003KT 14/01 A3032 RMK A01 T01430012  RH  041%=      5-min Rain = 0
KJU1 131700Z 33002KT 14/01 A3032 RMK A01 T01440010  RH  040%=      5-min Rain = 0
KJU1 131701Z 33004KT 15/02 A3032 RMK A01 T01450015  RH  041%=      5-min Rain = 0
KJU1 131702Z 35006KT 15/01 A3032 RMK A01 T01470014  RH  040%=      5-min Rain = 0
KJU1 131703Z 33005KT 15/01 A3032 RMK A01 T01460011  RH  040%=      5-min Rain = 0
KJU1 131704Z 33005KT 15/01 A3032 RMK A01 T01460010  RH  039%=      5-min Rain = 0
KJU1 131705Z 34004KT 15/01 A3032 RMK A01 T01480012  RH  040%=      5-min Rain = 0
KJU1 131706Z 35007KT 15/01 A3032 RMK A01 T01500012  RH  039%=      5-min Rain = 0
KJU1 131707Z 33005KT 15/01 A3032 RMK A01 T01500010  RH  038%=      5-min Rain = 0
KJU1 131708Z 36002KT 15/01 A3032 RMK A01 T01500011  RH  039%=      5-min Rain = 0
KJU1 131709Z 32002KT 15/01 A3031 RMK A01 T01520012  RH  039%=      5-min Rain = 0
KJU1 131710Z 32003KT 15/01 A3031 RMK A01 T01520010  RH  038%=      5-min Rain = 0
KJU1 131711Z 03007KT 15/01 A3031 RMK A01 T01530012  RH  038%=      5-min Rain = 0
KJU1 131712Z 02005KT 15/01 A3031 RMK A01 T01530010  RH  038%=      5-min Rain = 0
KJU1 131713Z 01005KT 15/01 A3031 RMK A01 T01520007  RH  037%=      5-min Rain = 0
KJU1 131714Z 35005KT 15/01 A3031 RMK A01 T01510007  RH  037%=      5-min Rain = 0
KJU1 131715Z 34006KT 15/01 A3031 RMK A01 T01510007  RH  037%=      5-min Rain = 0
KJU1 131716Z 00005KT 15/01 A3031 RMK A01 T01510006  RH  037%=      5-min Rain = 0
KJU1 131717Z 36003KT 15/01 A3031 RMK A01 T01510006  RH  037%=      5-min Rain = 0
KJU1 131718Z 35003KT 15/01 A3031 RMK A01 T01510006  RH  037%=      5-min Rain = 0
KJU1 131719Z 36005KT 15/01 A3031 RMK A01 T01530008  RH  037%=      5-min Rain = 0
KJU1 131720Z 01006KT 15/01 A3031 RMK A01 T01530005  RH  036%=      5-min Rain = 0
KJU1 131721Z 03008KT 16/01 A303 RMK A01 T01550009  RH  037%=      5-min Rain = 0
KJU1 131722Z 04009KT 16/01 A303 RMK A01 T01570009  RH  037%=      5-min Rain = 0
KJU1 131723Z 06006KT 16/01 A303 RMK A01 T01580008  RH  036%=      5-min Rain = 0
KJU1 131724Z 02006KT 16/01 A303 RMK A01 T01580008  RH  036%=      5-min Rain = 0
KJU1 131725Z 02006KT 16/01 A3031 RMK A01 T01570006  RH  036%=      5-min Rain = 0
KJU1 131726Z 02005KT 16/00 A303 RMK A01 T01550004  RH  036%=      5-min Rain = 0
KJU1 131727Z 02005KT 16/01 A303 RMK A01 T01550007  RH  037%=      5-min Rain = 0
KJU1 131728Z 03005KT 16/01 A303 RMK A01 T01570007  RH  036%=      5-min Rain = 0
KJU1 131729Z 02006KT 16/00 A303 RMK A01 T01560004  RH  036%=      5-min Rain = 0
KJU1 131730Z 03006KT 16/01 A303 RMK A01 T01570008  RH  036%=      5-min Rain = 0
KJU1 131731Z 04008KT 16/01 A303 RMK A01 T01600008  RH  036%=      5-min Rain = 0
KJU1 131732Z 04005KT 16/01 A303 RMK A01 T01590005  RH  035%=      5-min Rain = 0
KJU1 131733Z 06003KT 16/01 A303 RMK A01 T01580005  RH  035%=      5-min Rain = 0
KJU1 131734Z 03008KT 16/01 A303 RMK A01 T01590006  RH  035%=      5-min Rain = 0
KJU1 131735Z 04005KT 16/00 A303 RMK A01 T01590002  RH  034%=      5-min Rain = 0
KJU1 131736Z 07006KT 16/00 A303 RMK A01 T01590003  RH  035%=      5-min Rain = 0
KJU1 131737Z 06005KT 16/00 A303 RMK A01 T01600004  RH  035%=      5-min Rain = 0
KJU1 131738Z 04007KT 16/00 A303 RMK A01 T01620004  RH  034%=      5-min Rain = 0
KJU1 131739Z 04009KT 16/00 A303 RMK A01 T01620003  RH  034%=      5-min Rain = 0
KJU1 131740Z 03005KT 16/00 A303 RMK A01 T01620002  RH  034%=      5-min Rain = 0
KJU1 131741Z 05007KT 16/00 A303 RMK A01 T01620002  RH  034%=      5-min Rain = 0
KJU1 131742Z 06007KT 16/00 A303 RMK A01 T01620002  RH  034%=      5-min Rain = 0
KJU1 131743Z 04005KT 16/00 A303 RMK A01 T01630004  RH  034%=      5-min Rain = 0
KJU1 131744Z 02004G9KT 16/00 A303 RMK A01 T01630001  RH  033%=      5-min Rain = 0
KJU1 131745Z 03007KT 16/00 A303 RMK A01 T01620002  RH  034%=      5-min Rain = 0
KJU1 131746Z 04006KT 16/00 A303 RMK A01 T01610001  RH  034%=      5-min Rain = 0
KJU1 131747Z 06006KT 16/00 A303 RMK A01 T01610001  RH  034%=      5-min Rain = 0
KJU1 131748Z 04005KT 16/00 A303 RMK A01 T01620001  RH  033%=      5-min Rain = 0
KJU1 131749Z 04005KT 16/01 A303 RMK A01 T01640005  RH  034%=      5-min Rain = 0
KJU1 131750Z 04003KT 17/00 A303 RMK A01 T01650003  RH  033%=      5-min Rain = 0
KJU1 131751Z 35007KT 17/01 A303 RMK A01 T01650006  RH  034%=      5-min Rain = 0
KJU1 131752Z 00007KT 17/01 A303 RMK A01 T01670008  RH  034%=      5-min Rain = 0
KJU1 131753Z 35004KT 17/00 A303 RMK A01 T01670003  RH  033%=      5-min Rain = 0
KJU1 131754Z 36005KT 16/00 A303 RMK A01 T016400-0  RH  033%=      5-min Rain = 0
KJU1 131755Z 34005KT 16/00 A303 RMK A01 T01620001  RH  033%=      5-min Rain = 0
KJU1 131756Z 35008KT 16/01 A303 RMK A01 T01640006  RH  034%=      5-min Rain = 0
KJU1 131757Z 35007KT 17/00 A3029 RMK A01 T01660004  RH  033%=      5-min Rain = 0
KJU1 131758Z 01007KT 17/00 A3029 RMK A01 T01660003  RH  033%=      5-min Rain = 0
KJU1 131759Z 36004KT 17/00 A3029 RMK A01 T01660001  RH  033%=      5-min Rain = 0
KJU1 131800Z 02004KT 17/00 A3029 RMK A01 T01650002  RH  033%=      5-min Rain = 0
KJU1 131801Z 04003KT 17/00 A3029 RMK A01 T01660002  RH  033%=      5-min Rain = 0
KJU1 131802Z 01005KT 17/01 A3029 RMK A01 T01680005  RH  033%=      5-min Rain = 0
KJU1 131803Z 03006KT 17/00 A3029 RMK A01 T01680003  RH  033%=      5-min Rain = 0
KJU1 131804Z 01007KT 17/00 A3029 RMK A01 T01660000  RH  033%=      5-min Rain = 0
KJU1 131805Z 01004KT 16/00 A3029 RMK A01 T016400-0  RH  033%=      5-min Rain = 0
KJU1 131806Z 03005KT 16/00 A3029 RMK A01 T01640002  RH  033%=      5-min Rain = 0
KJU1 131807Z 06001KT 17/M00 A3029 RMK A01 T01651001  RH  033%=      5-min Rain = 0
KJU1 131808Z 34003KT 17/M00 A3029 RMK A01 T01651001  RH  032%=      5-min Rain = 0
KJU1 131809Z 30003KT 17/00 A3029 RMK A01 T01650000  RH  033%=      5-min Rain = 0
KJU1 131810Z 01003KT 16/00 A3029 RMK A01 T01640001  RH  033%=      5-min Rain = 0
KJU1 131811Z 02005KT 17/01 A3029 RMK A01 T01680007  RH  034%=      5-min Rain = 0
KJU1 131812Z 04007KT 17/00 A3029 RMK A01 T01710004  RH  032%=      5-min Rain = 0
KJU1 131813Z 04005KT 17/M00 A3029 RMK A01 T01691002  RH  031%=      5-min Rain = 0
KJU1 131814Z 01005KT 17/M00 A3028 RMK A01 T01671001  RH  032%=      5-min Rain = 0
KJU1 131815Z 02004KT 17/M00 A3028 RMK A01 T01671001  RH  032%=      5-min Rain = 0
KJU1 131816Z 00007KT 17/00 A3028 RMK A01 T01690002  RH  032%=      5-min Rain = 0
KJU1 131817Z 00007KT 17/00 A3028 RMK A01 T01720001  RH  031%=      5-min Rain = 0
KJU1 131818Z 35007KT 17/M00 A3028 RMK A01 T01721002  RH  031%=      5-min Rain = 0
KJU1 131819Z 36007KT 17/M01 A3028 RMK A01 T01701005  RH  031%=      5-min Rain = 0
KJU1 131820Z 01007KT 17/M00 A3028 RMK A01 T01691004  RH  031%=      5-min Rain = 0
KJU1 131821Z 02007KT 17/M00 A3028 RMK A01 T01701002  RH  031%=      5-min Rain = 0
KJU1 131822Z 02008KT 17/00 A3029 RMK A01 T01730003  RH  032%=      5-min Rain = 0
KJU1 131823Z 03008KT 18/M00 A3029 RMK A01 T01761003  RH  030%=      5-min Rain = 0
KJU1 131824Z 02006KT 17/M00 A3028 RMK A01 T01741003  RH  030%=      5-min Rain = 0
KJU1 131825Z 03008KT 17/M00 A3028 RMK A01 T01731004  RH  030%=      5-min Rain = 0
KJU1 131826Z 04009KT 17/00 A3028 RMK A01 T017300-0  RH  031%=      5-min Rain = 0
KJU1 131827Z 03009KT 17/M00 A3028 RMK A01 T01741003  RH  030%=      5-min Rain = 0
KJU1 131828Z 04007KT 17/M00 A3028 RMK A01 T01721003  RH  030%=      5-min Rain = 0
KJU1 131829Z 08005KT 17/M00 A3028 RMK A01 T01731003  RH  030%=      5-min Rain = 0
KJU1 131830Z 07005KT 17/M00 A3028 RMK A01 T01741003  RH  030%=      5-min Rain = 0
KJU1 131831Z 05003KT 17/M01 A3028 RMK A01 T01741005  RH  030%=      5-min Rain = 0
KJU1 131832Z 03005KT 17/M01 A3028 RMK A01 T01721005  RH  030%=      5-min Rain = 0
KJU1 131833Z 02003KT 17/M01 A3028 RMK A01 T01711008  RH  030%=      5-min Rain = 0
KJU1 131834Z 02003KT 17/M01 A3028 RMK A01 T01691010  RH  029%=      5-min Rain = 0
KJU1 131835Z 03007KT 17/M01 A3028 RMK A01 T01691007  RH  030%=      5-min Rain = 0
KJU1 131836Z 05011KT 17/M01 A3028 RMK A01 T01721005  RH  030%=      5-min Rain = 0
KJU1 131837Z 05009KT 18/M01 A3028 RMK A01 T01751008  RH  029%=      5-min Rain = 0
KJU1 131838Z 05008KT 18/M01 A3028 RMK A01 T01751009  RH  029%=      5-min Rain = 0
KJU1 131839Z 06007KT 17/M01 A3028 RMK A01 T01741009  RH  029%=      5-min Rain = 0
KJU1 131840Z 05007KT 18/M00 A3028 RMK A01 T01761003  RH  030%=      5-min Rain = 0
KJU1 131841Z 05007KT 18/M01 A3028 RMK A01 T01771007  RH  029%=      5-min Rain = 0
KJU1 131842Z 05005KT 18/M01 A3028 RMK A01 T01751007  RH  029%=      5-min Rain = 0
KJU1 131843Z 04005KT 17/M01 A3028 RMK A01 T01741007  RH  029%=      5-min Rain = 0
KJU1 131844Z 05003KT 17/M01 A3028 RMK A01 T01741010  RH  029%=      5-min Rain = 0
KJU1 131845Z 35004KT 17/M01 A3028 RMK A01 T01741009  RH  029%=      5-min Rain = 0
KJU1 131846Z 36005KT 18/M01 A3027 RMK A01 T01751007  RH  029%=      5-min Rain = 0
KJU1 131847Z 01005KT 18/M00 A3027 RMK A01 T01751004  RH  030%=      5-min Rain = 0
KJU1 131848Z 04010KT 18/M00 A3028 RMK A01 T01781003  RH  029%=      5-min Rain = 0
KJU1 131849Z 04007KT 18/M00 A3028 RMK A01 T01781003  RH  029%=      5-min Rain = 0
KJU1 131850Z 01008KT 18/M01 A3028 RMK A01 T01791005  RH  029%=      5-min Rain = 0
KJU1 131851Z 00005KT 18/M01 A3027 RMK A01 T01791008  RH  028%=      5-min Rain = 0
KJU1 131852Z 03011KT 18/M01 A3028 RMK A01 T01771007  RH  029%=      5-min Rain = 0
KJU1 131853Z 03009KT 18/M01 A3028 RMK A01 T01791005  RH  029%=      5-min Rain = 0
KJU1 131854Z 04008KT 18/M01 A3028 RMK A01 T01751011  RH  028%=      5-min Rain = 0
KJU1 131855Z 02009KT 17/M01 A3027 RMK A01 T01721009  RH  029%=      5-min Rain = 0
KJU1 131856Z 02010KT 17/M01 A3027 RMK A01 T01741007  RH  029%=      5-min Rain = 0
KJU1 131857Z 03010KT 17/M01 A3027 RMK A01 T01741009  RH  029%=      5-min Rain = 0
KJU1 131858Z 03010KT 17/M01 A3027 RMK A01 T01731007  RH  029%=      5-min Rain = 0
KJU1 131859Z 05008KT 18/M00 A3027 RMK A01 T01761003  RH  030%=      5-min Rain = 0
KJU1 131900Z 04006KT 18/M01 A3027 RMK A01 T01781006  RH  029%=      5-min Rain = 0
KJU1 131901Z 04007KT 18/M01 A3027 RMK A01 T01781006  RH  029%=      5-min Rain = 0
KJU1 131902Z 04005KT 18/M01 A3027 RMK A01 T01771008  RH  028%=      5-min Rain = 0
KJU1 131903Z 00003KT 18/M01 A3027 RMK A01 T01761009  RH  028%=      5-min Rain = 0
KJU1 131904Z 01004KT 18/M01 A3027 RMK A01 T01761005  RH  029%=      5-min Rain = 0
KJU1 131905Z 03004KT 18/M01 A3027 RMK A01 T01781006  RH  029%=      5-min Rain = 0
KJU1 131906Z 06003KT 18/M01 A3027 RMK A01 T01771007  RH  029%=      5-min Rain = 0
KJU1 131907Z 06003KT 18/M00 A3027 RMK A01 T01781002  RH  030%=      5-min Rain = 0
KJU1 131908Z 07004KT 18/M01 A3027 RMK A01 T01801008  RH  028%=      5-min Rain = 0
KJU1 131909Z 05006KT 18/M02 A3027 RMK A01 T01791019  RH  026%=      5-min Rain = 0
KJU1 131910Z 06004KT 18/M02 A3027 RMK A01 T01761020  RH  026%=      5-min Rain = 0
KJU1 131911Z 05007G12KT 18/M02 A3027 RMK A01 T01751016  RH  027%=      5-min Rain = 0
KJU1 131912Z 08009KT 18/M01 A3027 RMK A01 T01761014  RH  027%=      5-min Rain = 0
KJU1 131913Z 09009KT 17/M02 A3027 RMK A01 T01741019  RH  027%=      5-min Rain = 0
KJU1 131914Z 10008KT 17/M02 A3027 RMK A01 T01721019  RH  027%=      5-min Rain = 0
KJU1 131915Z 10007KT 17/M02 A3026 RMK A01 T01721016  RH  028%=      5-min Rain = 0
KJU1 131916Z 10006KT 17/M02 A3026 RMK A01 T01731018  RH  027%=      5-min Rain = 0
KJU1 131917Z 10006KT 17/M02 A3026 RMK A01 T01741017  RH  027%=      5-min Rain = 0
KJU1 131918Z 09006KT 17/M02 A3026 RMK A01 T01741018  RH  027%=      5-min Rain = 0
KJU1 131919Z 04007G12KT 18/M02 A3026 RMK A01 T01751016  RH  027%=      5-min Rain = 0
KJU1 131920Z 03009KT 18/M01 A3026 RMK A01 T01761012  RH  028%=      5-min Rain = 0
KJU1 131921Z 02006KT 17/M01 A3026 RMK A01 T01741014  RH  028%=      5-min Rain = 0
KJU1 131922Z 03007KT 17/M01 A3026 RMK A01 T01731013  RH  028%=      5-min Rain = 0
KJU1 131923Z 03008KT 17/M02 A3026 RMK A01 T01721015  RH  028%=      5-min Rain = 0
KJU1 131924Z 04007KT 17/M01 A3026 RMK A01 T01721014  RH  028%=      5-min Rain = 0
KJU1 131925Z 03006KT 17/M01 A3026 RMK A01 T01721012  RH  028%=      5-min Rain = 0
KJU1 131926Z 02009KT 17/M01 A3026 RMK A01 T01741011  RH  028%=      5-min Rain = 0
KJU1 131927Z 03010KT 18/M01 A3026 RMK A01 T01751010  RH  028%=      5-min Rain = 0
KJU1 131928Z 03009KT 18/M01 A3026 RMK A01 T01761012  RH  028%=      5-min Rain = 0
KJU1 131929Z 04005KT 18/M01 A3026 RMK A01 T01751014  RH  028%=      5-min Rain = 0
KJU1 131930Z 04006KT 17/M01 A3026 RMK A01 T01741014  RH  028%=      5-min Rain = 0
KJU1 131931Z 03006KT 17/M01 A3026 RMK A01 T01741013  RH  028%=      5-min Rain = 0
KJU1 131932Z 01005KT 18/M01 A3026 RMK A01 T01751014  RH  028%=      5-min Rain = 0
KJU1 131933Z 04005KT 18/M01 A3026 RMK A01 T01761014  RH  027%=      5-min Rain = 0
KJU1 131934Z 04008KT 18/M01 A3026 RMK A01 T01771012  RH  028%=      5-min Rain = 0
KJU1 131935Z 04011KT 18/M02 A3026 RMK A01 T01781015  RH  027%=      5-min Rain = 0
KJU1 131936Z 04011KT 18/M02 A3026 RMK A01 T01771017  RH  027%=      5-min Rain = 0
KJU1 131937Z 06008KT 18/M02 A3026 RMK A01 T01761016  RH  027%=      5-min Rain = 0
KJU1 131938Z 04008KT 18/M02 A3026 RMK A01 T01761016  RH  027%=      5-min Rain = 0
KJU1 131939Z 04007KT 18/M02 A3026 RMK A01 T01751019  RH  027%=      5-min Rain = 0
KJU1 131940Z 04007KT 17/M02 A3026 RMK A01 T01741019  RH  027%=      5-min Rain = 0
KJU1 131941Z 06009KT 18/M02 A3026 RMK A01 T01751023  RH  026%=      5-min Rain = 0
KJU1 131942Z 05007KT 18/M02 A3026 RMK A01 T01761022  RH  026%=      5-min Rain = 0
KJU1 131943Z 06007KT 18/M02 A3026 RMK A01 T01771023  RH  026%=      5-min Rain = 0
KJU1 131944Z 04009KT 18/M02 A3026 RMK A01 T01771021  RH  026%=      5-min Rain = 0
KJU1 131945Z 05007KT 18/M02 A3026 RMK A01 T01781021  RH  026%=      5-min Rain = 0
KJU1 131946Z 06007KT 18/M02 A3026 RMK A01 T01791020  RH  026%=      5-min Rain = 0
KJU1 131947Z 07007KT 18/M02 A3026 RMK A01 T01781021  RH  026%=      5-min Rain = 0
KJU1 131948Z 06007KT 18/M02 A3025 RMK A01 T01771018  RH  026%=      5-min Rain = 0
KJU1 131949Z 06006KT 18/M02 A3025 RMK A01 T01771023  RH  026%=      5-min Rain = 0
KJU1 131950Z 07006KT 18/M02 A3025 RMK A01 T01761019  RH  026%=      5-min Rain = 0
KJU1 131951Z 08003KT 18/M02 A3025 RMK A01 T01761019  RH  026%=      5-min Rain = 0
KJU1 131952Z 08003KT 18/M02 A3025 RMK A01 T01771019  RH  026%=      5-min Rain = 0
KJU1 131953Z 07003KT 18/M02 A3025 RMK A01 T01771019  RH  026%=      5-min Rain = 0
KJU1 131954Z 04004KT 18/M02 A3025 RMK A01 T01771018  RH  026%=      5-min Rain = 0
KJU1 131955Z 04004KT 18/M02 A3025 RMK A01 T01761019  RH  027%=      5-min Rain = 0
KJU1 131956Z 03003KT 18/M02 A3025 RMK A01 T01761019  RH  026%=      5-min Rain = 0
KJU1 131957Z 08002KT 18/M02 A3025 RMK A01 T01771022  RH  026%=      5-min Rain = 0
KJU1 131958Z 05003KT 18/M02 A3025 RMK A01 T01771023  RH  025%=      5-min Rain = 0
KJU1 131959Z 02004KT 18/M02 A3025 RMK A01 T01781019  RH  026%=      5-min Rain = 0
KJU1 132000Z 07007KT 18/M02 A3024 RMK A01 T01791016  RH  026%=      5-min Rain = 0
KJU1 132001Z 10003KT 18/M02 A3025 RMK A01 T01791020  RH  026%=      5-min Rain = 0
KJU1 132002Z 05004KT 18/M02 A3024 RMK A01 T01781018  RH  026%=      5-min Rain = 0
KJU1 132003Z 04007KT 18/M01 A3024 RMK A01 T01791014  RH  027%=      5-min Rain = 0
KJU1 132004Z 04007KT 18/M01 A3024 RMK A01 T01821010  RH  027%=      5-min Rain = 0
KJU1 132005Z 07009KT 18/M01 A3024 RMK A01 T01831009  RH  027%=      5-min Rain = 0
KJU1 132006Z 08007KT 19/M01 A3025 RMK A01 T01851012  RH  026%=      5-min Rain = 0
KJU1 132007Z 10004KT 18/M02 A3025 RMK A01 T01831015  RH  026%=      5-min Rain = 0
KJU1 132008Z 08004KT 18/M02 A3024 RMK A01 T01811017  RH  026%=      5-min Rain = 0
KJU1 132009Z 06006KT 18/M02 A3024 RMK A01 T01801017  RH  026%=      5-min Rain = 0
KJU1 132010Z 07005KT 18/M01 A3024 RMK A01 T01811014  RH  027%=      5-min Rain = 0
KJU1 132011Z 06004KT 18/M01 A3024 RMK A01 T01831013  RH  027%=      5-min Rain = 0
KJU1 132012Z 04005KT 18/M01 A3024 RMK A01 T01841014  RH  026%=      5-min Rain = 0
KJU1 132013Z 01005KT 18/M01 A3024 RMK A01 T01841013  RH  026%=      5-min Rain = 0
KJU1 132014Z 36005KT 18/M01 A3024 RMK A01 T01841012  RH  026%=      5-min Rain = 0
KJU1 132015Z 36005KT 19/M01 A3024 RMK A01 T01851014  RH  026%=      5-min Rain = 0
KJU1 132016Z 36004KT 18/M02 A3024 RMK A01 T01841017  RH  026%=      5-min Rain = 0
KJU1 132017Z 02008KT 18/M01 A3024 RMK A01 T01841013  RH  026%=      5-min Rain = 0
KJU1 132018Z 02010KT 19/M01 A3024 RMK A01 T01851013  RH  026%=      5-min Rain = 0
KJU1 132019Z 02010KT 19/M02 A3024 RMK A01 T01861017  RH  025%=      5-min Rain = 0
KJU1 132020Z 03009KT 18/M02 A3024 RMK A01 T01841018  RH  025%=      5-min Rain = 0
KJU1 132021Z 02009KT 18/M02 A3024 RMK A01 T01831016  RH  026%=      5-min Rain = 0
KJU1 132022Z 03005KT 18/M02 A3024 RMK A01 T01831019  RH  025%=      5-min Rain = 0
KJU1 132023Z 35003KT 18/M02 A3024 RMK A01 T01831018  RH  026%=      5-min Rain = 0
KJU1 132024Z 35004KT 18/M02 A3024 RMK A01 T01841015  RH  026%=      5-min Rain = 0
KJU1 132025Z 02006KT 19/M02 A3024 RMK A01 T01851020  RH  025%=      5-min Rain = 0
KJU1 132026Z 01007KT 18/M02 A3024 RMK A01 T01841020  RH  025%=      5-min Rain = 0
KJU1 132027Z 02008KT 18/M02 A3024 RMK A01 T01831018  RH  025%=      5-min Rain = 0
KJU1 132028Z 01009KT 19/M02 A3024 RMK A01 T01861015  RH  026%=      5-min Rain = 0
KJU1 132029Z 02008KT 19/M01 A3024 RMK A01 T01891014  RH  025%=      5-min Rain = 0
KJU1 132030Z 03008KT 19/M02 A3024 RMK A01 T01901015  RH  025%=      5-min Rain = 0
KJU1 132031Z 02008KT 19/M02 A3024 RMK A01 T01891019  RH  024%=      5-min Rain = 0
KJU1 132032Z 02006KT 19/M02 A3023 RMK A01 T01881019  RH  025%=      5-min Rain = 0
KJU1 132033Z 03007KT 19/M02 A3023 RMK A01 T01891018  RH  025%=      5-min Rain = 0
KJU1 132034Z 06008KT 19/M02 A3024 RMK A01 T01901019  RH  024%=      5-min Rain = 0
KJU1 132035Z 08007KT 19/M02 A3024 RMK A01 T01921023  RH  023%=      5-min Rain = 0
KJU1 132036Z 08008KT 19/M03 A3024 RMK A01 T01911025  RH  023%=      5-min Rain = 0
KJU1 132037Z 04010KT 19/M02 A3024 RMK A01 T01911019  RH  024%=      5-min Rain = 0
KJU1 132038Z 03008KT 19/M03 A3024 RMK A01 T01901025  RH  023%=      5-min Rain = 0
KJU1 132039Z 02008KT 19/M02 A3024 RMK A01 T01871024  RH  024%=      5-min Rain = 0
KJU1 132040Z 02007KT 19/M02 A3023 RMK A01 T01851022  RH  025%=      5-min Rain = 0
KJU1 132041Z 03005KT 19/M02 A3023 RMK A01 T01861018  RH  025%=      5-min Rain = 0
KJU1 132042Z 01005KT 19/M02 A3023 RMK A01 T01871017  RH  025%=      5-min Rain = 0
KJU1 132043Z 35006KT 19/M02 A3023 RMK A01 T01871018  RH  025%=      5-min Rain = 0
KJU1 132044Z 01003KT 19/M02 A3023 RMK A01 T01871020  RH  025%=      5-min Rain = 0
KJU1 132045Z 06007KT 19/M02 A3023 RMK A01 T01861018  RH  025%=      5-min Rain = 0
KJU1 132046Z 07005KT 19/M02 A3023 RMK A01 T01861021  RH  024%=      5-min Rain = 0
KJU1 132047Z 06003KT 19/M02 A3023 RMK A01 T01851023  RH  024%=      5-min Rain = 0
KJU1 132048Z 07004KT 18/M03 A3023 RMK A01 T01841025  RH  024%=      5-min Rain = 0
KJU1 132049Z 03007KT 19/M02 A3023 RMK A01 T01851018  RH  025%=      5-min Rain = 0
KJU1 132050Z 02007KT 19/M01 A3023 RMK A01 T01881014  RH  025%=      5-min Rain = 0
KJU1 132051Z 03009KT 19/M01 A3023 RMK A01 T01891012  RH  026%=      5-min Rain = 0
KJU1 132052Z 01008KT 19/M01 A3023 RMK A01 T01901014  RH  025%=      5-min Rain = 0
KJU1 132053Z 03011KT 19/M01 A3023 RMK A01 T01901014  RH  025%=      5-min Rain = 0
KJU1 132054Z 02009KT 19/M02 A3023 RMK A01 T01881019  RH  024%=      5-min Rain = 0
KJU1 132055Z 03013KT 19/M02 A3023 RMK A01 T01861019  RH  025%=      5-min Rain = 0
KJU1 132056Z 02010KT 19/M02 A3023 RMK A01 T01871018  RH  025%=      5-min Rain = 0
KJU1 132057Z 36008KT 19/M02 A3023 RMK A01 T01871020  RH  025%=      5-min Rain = 0
KJU1 132058Z 01007KT 19/M02 A3023 RMK A01 T01861022  RH  024%=      5-min Rain = 0
KJU1 132059Z 01009KT 19/M02 A3023 RMK A01 T01851019  RH  025%=      5-min Rain = 0
KJU1 132100Z 01008KT 19/M02 A3023 RMK A01 T01861020  RH  025%=      5-min Rain = 0
KJU1 132101Z 02008KT 19/M02 A3023 RMK A01 T01871020  RH  024%=      5-min Rain = 0
KJU1 132102Z 03006KT 19/M02 A3023 RMK A01 T01861020  RH  025%=      5-min Rain = 0
KJU1 132103Z 03005KT 19/M02 A3023 RMK A01 T01861021  RH  025%=      5-min Rain = 0
KJU1 132104Z 06005KT 19/M02 A3023 RMK A01 T01851020  RH  025%=      5-min Rain = 0
KJU1 132105Z 04007KT 19/M02 A3023 RMK A01 T01881015  RH  025%=      5-min Rain = 0
KJU1 132106Z 02005KT 19/M02 A3023 RMK A01 T01891018  RH  025%=      5-min Rain = 0
KJU1 132107Z 03006KT 19/M02 A3023 RMK A01 T01881018  RH  025%=      5-min Rain = 0
KJU1 132108Z 06007KT 19/M02 A3023 RMK A01 T01881016  RH  025%=      5-min Rain = 0
KJU1 132109Z 08006KT 19/M02 A3023 RMK A01 T01891022  RH  024%=      5-min Rain = 0
KJU1 132110Z 06005G10KT 19/M03 A3023 RMK A01 T01881028  RH  023%=      5-min Rain = 0
KJU1 132111Z 04009KT 19/M02 A3023 RMK A01 T01881024  RH  024%=      5-min Rain = 0
KJU1 132112Z 05007KT 19/M03 A3023 RMK A01 T01891027  RH  023%=      5-min Rain = 0
KJU1 132113Z 07006G11KT 19/M03 A3023 RMK A01 T01881029  RH  023%=      5-min Rain = 0
KJU1 132114Z 06003KT 19/M03 A3023 RMK A01 T01871030  RH  023%=      5-min Rain = 0
KJU1 132115Z 07006G11KT 19/M03 A3022 RMK A01 T01871027  RH  023%=      5-min Rain = 0
KJU1 132116Z 07009KT 19/M02 A3023 RMK A01 T01881021  RH  024%=      5-min Rain = 0
KJU1 132117Z 07007KT 19/M02 A3023 RMK A01 T01871019  RH  025%=      5-min Rain = 0
KJU1 132118Z 08003KT 19/M02 A3022 RMK A01 T01851018  RH  025%=      5-min Rain = 0
KJU1 132119Z 11005KT 19/M01 A3022 RMK A01 T01851013  RH  026%=      5-min Rain = 0
KJU1 132120Z 10004KT 19/M01 A3022 RMK A01 T01871014  RH  026%=      5-min Rain = 0
KJU1 132121Z 09003KT 19/M02 A3022 RMK A01 T01871016  RH  025%=      5-min Rain = 0
KJU1 132122Z 07005KT 19/M02 A3022 RMK A01 T01851020  RH  025%=      5-min Rain = 0
KJU1 132123Z 07004KT 18/M02 A3022 RMK A01 T01841019  RH  025%=      5-min Rain = 0
KJU1 132124Z 04005G10KT 19/M01 A3022 RMK A01 T01851014  RH  026%=      5-min Rain = 0
KJU1 132125Z 04007KT 19/M02 A3022 RMK A01 T01871015  RH  026%=      5-min Rain = 0
KJU1 132126Z 08007KT 19/M01 A3022 RMK A01 T01881012  RH  026%=      5-min Rain = 0
KJU1 132127Z 08007KT 19/M02 A3022 RMK A01 T01901015  RH  025%=      5-min Rain = 0
KJU1 132128Z 03010KT 19/M01 A3022 RMK A01 T01901012  RH  026%=      5-min Rain = 0
KJU1 132129Z 03011KT 19/M01 A3022 RMK A01 T01921008  RH  026%=      5-min Rain = 0
KJU1 132130Z 05010KT 19/M01 A3022 RMK A01 T01921012  RH  025%=      5-min Rain = 0
KJU1 132131Z 05008KT 19/M02 A3022 RMK A01 T01881015  RH  025%=      5-min Rain = 0
KJU1 132132Z 05006KT 19/M01 A3022 RMK A01 T01871013  RH  026%=      5-min Rain = 0
KJU1 132133Z 07005KT 19/M02 A3022 RMK A01 T01871016  RH  025%=      5-min Rain = 0
KJU1 132134Z 07006KT 19/M02 A3022 RMK A01 T01861016  RH  026%=      5-min Rain = 0
KJU1 132135Z 07006KT 19/M02 A3022 RMK A01 T01861016  RH  025%=      5-min Rain = 0
KJU1 132136Z 06005KT 19/M02 A3022 RMK A01 T01861018  RH  025%=      5-min Rain = 0
KJU1 132137Z 07003KT 19/M02 A3022 RMK A01 T01851019  RH  025%=      5-min Rain = 0
KJU1 132138Z 06005KT 19/M02 A3022 RMK A01 T01851018  RH  025%=      5-min Rain = 0
KJU1 132139Z 06003KT 19/M02 A3022 RMK A01 T01871019  RH  025%=      5-min Rain = 0
KJU1 132140Z 02007KT 19/M02 A3022 RMK A01 T01891017  RH  025%=      5-min Rain = 0
KJU1 132141Z 01006KT 19/M01 A3022 RMK A01 T01881014  RH  025%=      5-min Rain = 0
KJU1 132142Z 01005KT 19/M01 A3022 RMK A01 T01871013  RH  026%=      5-min Rain = 0
KJU1 132143Z 03003KT 19/M02 A3022 RMK A01 T01871017  RH  025%=      5-min Rain = 0
KJU1 132144Z 03003KT 19/M02 A3022 RMK A01 T01871016  RH  025%=      5-min Rain = 0
KJU1 132145Z 03004KT 19/M02 A3022 RMK A01 T01871016  RH  025%=      5-min Rain = 0
KJU1 132146Z 05008KT 19/M02 A3022 RMK A01 T01881017  RH  025%=      5-min Rain = 0
KJU1 132147Z 06005KT 19/M02 A3022 RMK A01 T01881016  RH  025%=      5-min Rain = 0
KJU1 132148Z 06004KT 19/M02 A3022 RMK A01 T01891015  RH  025%=      5-min Rain = 0
KJU1 132149Z 08004KT 19/M02 A3022 RMK A01 T01901015  RH  025%=      5-min Rain = 0
KJU1 132150Z 10002KT 19/M02 A3022 RMK A01 T01901017  RH  025%=      5-min Rain = 0
KJU1 132151Z 14004KT 19/M02 A3022 RMK A01 T01901016  RH  025%=      5-min Rain = 0
KJU1 132152Z 14004KT 19/M02 A3022 RMK A01 T01901016  RH  025%=      5-min Rain = 0
KJU1 132153Z 11004KT 19/M01 A3022 RMK A01 T01911014  RH  025%=      5-min Rain = 0
KJU1 132154Z 05003KT 19/M02 A3022 RMK A01 T01921016  RH  024%=      5-min Rain = 0
KJU1 132155Z 03002KT 19/M02 A3022 RMK A01 T01911016  RH  025%=      5-min Rain = 0
KJU1 132156Z 08006G11KT 19/M01 A3022 RMK A01 T01911013  RH  025%=      5-min Rain = 0
KJU1 132157Z 07010KT 19/M01 A3022 RMK A01 T01911009  RH  026%=      5-min Rain = 0
KJU1 132158Z 06009KT 19/M01 A3022 RMK A01 T01901010  RH  026%=      5-min Rain = 0
KJU1 132159Z 06010KT 19/M01 A3022 RMK A01 T01891010  RH  026%=      5-min Rain = 0
KJU1 132200Z 04008KT 19/M01 A3022 RMK A01 T01881008  RH  026%=      5-min Rain = 0
KJU1 132201Z 04006KT 19/M01 A3022 RMK A01 T01891011  RH  026%=      5-min Rain = 0
KJU1 132202Z 07005KT 19/M01 A3022 RMK A01 T01871010  RH  026%=      5-min Rain = 0
KJU1 132203Z 08004KT 19/M01 A3022 RMK A01 T01891006  RH  027%=      5-min Rain = 0
KJU1 132204Z 05004KT 19/M01 A3022 RMK A01 T01911005  RH  027%=      5-min Rain = 0
KJU1 132205Z 06006KT 19/M01 A3022 RMK A01 T01921006  RH  026%=      5-min Rain = 0
KJU1 132206Z 06007KT 19/M01 A3022 RMK A01 T01921005  RH  026%=      5-min Rain = 0
KJU1 132207Z 06008KT 19/M01 A3022 RMK A01 T01911010  RH  026%=      5-min Rain = 0
KJU1 132208Z 06009KT 19/M01 A3022 RMK A01 T01901010  RH  026%=      5-min Rain = 0
KJU1 132209Z 07009KT 19/M01 A3022 RMK A01 T01901011  RH  026%=      5-min Rain = 0
KJU1 132210Z 06006KT 19/M01 A3022 RMK A01 T01901012  RH  026%=      5-min Rain = 0
KJU1 132211Z 07005KT 19/M01 A3022 RMK A01 T01901011  RH  026%=      5-min Rain = 0
KJU1 132212Z 09004KT 19/M01 A3022 RMK A01 T01901013  RH  025%=      5-min Rain = 0
KJU1 132213Z 07004KT 19/M01 A3022 RMK A01 T01901012  RH  026%=      5-min Rain = 0
KJU1 132214Z 06001KT 19/M01 A3021 RMK A01 T01891013  RH  025%=      5-min Rain = 0
KJU1 132215Z 14002KT 19/M01 A3021 RMK A01 T01891011  RH  026%=      5-min Rain = 0
KJU1 132216Z 13003KT 19/M01 A3021 RMK A01 T01911009  RH  026%=      5-min Rain = 0
KJU1 132217Z 07007KT 19/M01 A3021 RMK A01 T01931008  RH  026%=      5-min Rain = 0
KJU1 132218Z 04007KT 19/M01 A3021 RMK A01 T01941006  RH  026%=      5-min Rain = 0
KJU1 132219Z 07009KT 20/M00 A3021 RMK A01 T01951003  RH  026%=      5-min Rain = 0
KJU1 132220Z 07007KT 20/M01 A3021 RMK A01 T01961009  RH  025%=      5-min Rain = 0
KJU1 132221Z 07006KT 20/M01 A3021 RMK A01 T01951008  RH  025%=      5-min Rain = 0
KJU1 132222Z 04006KT 20/M01 A3021 RMK A01 T01951007  RH  026%=      5-min Rain = 0
KJU1 132223Z 04008KT 20/M01 A3021 RMK A01 T01951005  RH  026%=      5-min Rain = 0
KJU1 132224Z 04009KT 20/M01 A3021 RMK A01 T01951006  RH  026%=      5-min Rain = 0
KJU1 132225Z 03007KT 19/M01 A3021 RMK A01 T01941005  RH  026%=      5-min Rain = 0
KJU1 132226Z 02007KT 19/M01 A3021 RMK A01 T01931007  RH  026%=      5-min Rain = 0
KJU1 132227Z 02006KT 19/M01 A3021 RMK A01 T01921008  RH  026%=      5-min Rain = 0
KJU1 132228Z 06005KT 19/M01 A3021 RMK A01 T01911009  RH  026%=      5-min Rain = 0
KJU1 132229Z 04003KT 19/M01 A3021 RMK A01 T01901010  RH  026%=      5-min Rain = 0
KJU1 132230Z 07003KT 19/M01 A3021 RMK A01 T01901008  RH  026%=      5-min Rain = 0
KJU1 132231Z 09002KT 19/M01 A3021 RMK A01 T01901009  RH  026%=      5-min Rain = 0
KJU1 132232Z 06003KT 19/M01 A3021 RMK A01 T01901011  RH  026%=      5-min Rain = 0
KJU1 132233Z 05008KT 19/M01 A3021 RMK A01 T01901008  RH  026%=      5-min Rain = 0
KJU1 132234Z 06008KT 19/M01 A3021 RMK A01 T01911007  RH  026%=      5-min Rain = 0
KJU1 132235Z 07006KT 19/M01 A3021 RMK A01 T01901010  RH  026%=      5-min Rain = 0
KJU1 132236Z 08007KT 19/M01 A3021 RMK A01 T01901010  RH  026%=      5-min Rain = 0
KJU1 132237Z 07007KT 19/M01 A3021 RMK A01 T01901010  RH  026%=      5-min Rain = 0
KJU1 132238Z 08006KT 19/M01 A3021 RMK A01 T01891012  RH  026%=      5-min Rain = 0
KJU1 132239Z 08006KT 19/M01 A3021 RMK A01 T01881013  RH  026%=      5-min Rain = 0
KJU1 132240Z 06005KT 19/M01 A3021 RMK A01 T01871012  RH  026%=      5-min Rain = 0
KJU1 132241Z 04007KT 19/M01 A3021 RMK A01 T01891005  RH  027%=      5-min Rain = 0
KJU1 132242Z 06008KT 19/M00 A3021 RMK A01 T01931003  RH  027%=      5-min Rain = 0
KJU1 132243Z 07009KT 20/M01 A3021 RMK A01 T01951009  RH  025%=      5-min Rain = 0
KJU1 132244Z 07009KT 19/M01 A3021 RMK A01 T01921010  RH  026%=      5-min Rain = 0
KJU1 132245Z 08007KT 19/M01 A3021 RMK A01 T01901010  RH  026%=      5-min Rain = 0
KJU1 132246Z 09006KT 19/M01 A3021 RMK A01 T01891008  RH  026%=      5-min Rain = 0
KJU1 132247Z 09004KT 19/M01 A3021 RMK A01 T01881009  RH  026%=      5-min Rain = 0
KJU1 132248Z 09003KT 19/M01 A3021 RMK A01 T01871010  RH  026%=      5-min Rain = 0
KJU1 132249Z 07002KT 19/M01 A3021 RMK A01 T01871010  RH  026%=      5-min Rain = 0
KJU1 132250Z 06002KT 19/M01 A3021 RMK A01 T01871011  RH  026%=      5-min Rain = 0
KJU1 132251Z 07003KT 19/M01 A3021 RMK A01 T01881010  RH  026%=      5-min Rain = 0
KJU1 132252Z 06001KT 19/M01 A3021 RMK A01 T01881010  RH  026%=      5-min Rain = 0
KJU1 132253Z 03001KT 19/M01 A3021 RMK A01 T01881009  RH  026%=      5-min Rain = 0
KJU1 132254Z 35003KT 19/M01 A3021 RMK A01 T01891009  RH  026%=      5-min Rain = 0
KJU1 132255Z 02005KT 19/M01 A3021 RMK A01 T01891006  RH  027%=      5-min Rain = 0
KJU1 132256Z 03007KT 19/M00 A3021 RMK A01 T01891004  RH  027%=      5-min Rain = 0
KJU1 132257Z 05006KT 19/M01 A3021 RMK A01 T01911005  RH  027%=      5-min Rain = 0
KJU1 132258Z 06005KT 19/M01 A3021 RMK A01 T01901008  RH  026%=      5-min Rain = 0
KJU1 132259Z 04004KT 19/M01 A3021 RMK A01 T01891009  RH  026%=      5-min Rain = 0
KJU1 132300Z 04003KT 19/M01 A3021 RMK A01 T01881009  RH  026%=      5-min Rain = 0
KJU1 132301Z 03004KT 19/M01 A3021 RMK A01 T01871008  RH  027%=      5-min Rain = 0
KJU1 132302Z 04003KT 19/M01 A3021 RMK A01 T01871007  RH  027%=      5-min Rain = 0
KJU1 132303Z 02004KT 19/M00 A3021 RMK A01 T01891004  RH  027%=      5-min Rain = 0
KJU1 132304Z 02004KT 19/M01 A3021 RMK A01 T01901006  RH  027%=      5-min Rain = 0
KJU1 132305Z 06006KT 19/M01 A3021 RMK A01 T01891006  RH  027%=      5-min Rain = 0
KJU1 132306Z 06008KT 19/M01 A3021 RMK A01 T01891006  RH  027%=      5-min Rain = 0
KJU1 132307Z 07010KT 19/M00 A3021 RMK A01 T01891003  RH  027%=      5-min Rain = 0
KJU1 132308Z 06011KT 19/M00 A3021 RMK A01 T01891003  RH  027%=      5-min Rain = 0
KJU1 132309Z 06009KT 19/M00 A3021 RMK A01 T01891003  RH  027%=      5-min Rain = 0
KJU1 132310Z 06009KT 19/M00 A3021 RMK A01 T01881004  RH  027%=      5-min Rain = 0
KJU1 132311Z 07010KT 19/M01 A302 RMK A01 T01881005  RH  027%=      5-min Rain = 0
KJU1 132312Z 07009KT 19/M01 A3021 RMK A01 T01871005  RH  027%=      5-min Rain = 0
KJU1 132313Z 05008KT 19/M01 A3021 RMK A01 T01871005  RH  027%=      5-min Rain = 0
KJU1 132314Z 04008KT 19/M01 A3021 RMK A01 T01871005  RH  027%=      5-min Rain = 0
KJU1 132315Z 02004G9KT 19/M01 A302 RMK A01 T01871006  RH  027%=      5-min Rain = 0
KJU1 132316Z 06004KT 19/M01 A302 RMK A01 T01871005  RH  027%=      5-min Rain = 0
KJU1 132317Z 02003KT 19/M01 A302 RMK A01 T01871005  RH  027%=      5-min Rain = 0
KJU1 132318Z 04005KT 19/M01 A302 RMK A01 T01881005  RH  027%=      5-min Rain = 0
KJU1 132319Z 34004KT 19/M01 A302 RMK A01 T01881005  RH  027%=      5-min Rain = 0
KJU1 132320Z 09004KT 19/M00 A302 RMK A01 T01881004  RH  027%=      5-min Rain = 0
KJU1 132321Z 10005KT 19/M00 A302 RMK A01 T01881003  RH  028%=      5-min Rain = 0
KJU1 132322Z 09008KT 19/M00 A302 RMK A01 T01891004  RH  027%=      5-min Rain = 0
KJU1 132323Z 07005KT 19/M00 A302 RMK A01 T01881004  RH  027%=      5-min Rain = 0
KJU1 132324Z 07005KT 19/M00 A302 RMK A01 T01871004  RH  028%=      5-min Rain = 0
KJU1 132325Z 05006KT 19/M00 A302 RMK A01 T01871004  RH  027%=      5-min Rain = 0
KJU1 132326Z 07006KT 19/M00 A302 RMK A01 T01871002  RH  028%=      5-min Rain = 0
KJU1 132327Z 08005KT 19/M00 A302 RMK A01 T01881003  RH  028%=      5-min Rain = 0
KJU1 132328Z 06008KT 19/M00 A302 RMK A01 T01891002  RH  028%=      5-min Rain = 0
KJU1 132329Z 06006KT 19/M00 A302 RMK A01 T01891002  RH  027%=      5-min Rain = 0
KJU1 132330Z 06005KT 19/M00 A302 RMK A01 T01881004  RH  027%=      5-min Rain = 0
KJU1 132331Z 07007KT 19/M00 A302 RMK A01 T01881003  RH  028%=      5-min Rain = 0
KJU1 132332Z 06009KT 19/M01 A3021 RMK A01 T01881005  RH  027%=      5-min Rain = 0
KJU1 132333Z 05011KT 19/M01 A3021 RMK A01 T01881006  RH  027%=      5-min Rain = 0
KJU1 132334Z 05011KT 19/M01 A3021 RMK A01 T01881007  RH  027%=      5-min Rain = 0
KJU1 132335Z 05009KT 19/M01 A3021 RMK A01 T01871008  RH  027%=      5-min Rain = 0
KJU1 132336Z 05010KT 19/M01 A3021 RMK A01 T01861009  RH  027%=      5-min Rain = 0
KJU1 132337Z 05010KT 19/M01 A3021 RMK A01 T01861011  RH  026%=      5-min Rain = 0
KJU1 132338Z 05010KT 19/M01 A3021 RMK A01 T01861011  RH  026%=      5-min Rain = 0
KJU1 132339Z 06009KT 19/M01 A3021 RMK A01 T01861010  RH  026%=      5-min Rain = 0
KJU1 132340Z 07008KT 19/M01 A3021 RMK A01 T01861012  RH  026%=      5-min Rain = 0
KJU1 132341Z 07009KT 19/M02 A3021 RMK A01 T01861015  RH  026%=      5-min Rain = 0
KJU1 132342Z 07009KT 19/M02 A3021 RMK A01 T01851016  RH  026%=      5-min Rain = 0
KJU1 132343Z 07008KT 19/M01 A3021 RMK A01 T01851014  RH  026%=      5-min Rain = 0
KJU1 132344Z 06007KT 19/M02 A3021 RMK A01 T01851016  RH  026%=      5-min Rain = 0
KJU1 132345Z 04006KT 19/M02 A3021 RMK A01 T01851016  RH  026%=      5-min Rain = 0
KJU1 132346Z 03007KT 19/M01 A3021 RMK A01 T01851014  RH  026%=      5-min Rain = 0
KJU1 132347Z 03007KT 19/M02 A3021 RMK A01 T01851015  RH  026%=      5-min Rain = 0
KJU1 132348Z 03009KT 19/M02 A3021 RMK A01 T01851015  RH  026%=      5-min Rain = 0
KJU1 132349Z 04007KT 19/M02 A3021 RMK A01 T01851015  RH  026%=      5-min Rain = 0
KJU1 132350Z 04006KT 19/M02 A3021 RMK A01 T01851016  RH  026%=      5-min Rain = 0
KJU1 132351Z 03007KT 18/M02 A3021 RMK A01 T01841016  RH  026%=      5-min Rain = 0
KJU1 132352Z 04007KT 18/M02 A3021 RMK A01 T01841016  RH  026%=      5-min Rain = 0
KJU1 132353Z 05008KT 18/M01 A3021 RMK A01 T01841014  RH  026%=      5-min Rain = 0
KJU1 132354Z 06008KT 18/M02 A3021 RMK A01 T01841018  RH  025%=      5-min Rain = 0
KJU1 132355Z 06008KT 18/M02 A3021 RMK A01 T01841019  RH  025%=      5-min Rain = 0
KJU1 132356Z 07006KT 18/M02 A3021 RMK A01 T01841019  RH  025%=      5-min Rain = 0
KJU1 132357Z 06005KT 18/M02 A3021 RMK A01 T01841017  RH  026%=      5-min Rain = 0
KJU1 132358Z 06006KT 18/M02 A3021 RMK A01 T01841019  RH  025%=      5-min Rain = 0
KJU1 132359Z 05011KT 18/M02 A3021 RMK A01 T01831020  RH  025%=      5-min Rain = 0
KJU1 140000Z 08011KT 18/M02 A3021 RMK A01 T01821022  RH  025%=      5-min Rain = 0
KJU1 140001Z 07011KT 18/M02 A3021 RMK A01 T01811024  RH  025%=      5-min Rain = 0
KJU1 140002Z 07009KT 18/M03 A3021 RMK A01 T01801025  RH  025%=      5-min Rain = 0
KJU1 140003Z 07008KT 18/M03 A3021 RMK A01 T01791026  RH  024%=      5-min Rain = 0
KJU1 140004Z 07007KT 18/M03 A3021 RMK A01 T01791026  RH  025%=      5-min Rain = 0
KJU1 140005Z 08007KT 18/M03 A3021 RMK A01 T01791025  RH  025%=      5-min Rain = 0
KJU1 140006Z 07008KT 18/M03 A3021 RMK A01 T01781025  RH  025%=      5-min Rain = 0
KJU1 140007Z 07008KT 18/M03 A3021 RMK A01 T01781025  RH  025%=      5-min Rain = 0
KJU1 140008Z 07009KT 18/M03 A3021 RMK A01 T01771026  RH  025%=      5-min Rain = 0
KJU1 140009Z 07009KT 18/M03 A3021 RMK A01 T01771028  RH  025%=      5-min Rain = 0
KJU1 140010Z 07011KT 18/M03 A3021 RMK A01 T01761029  RH  024%=      5-min Rain = 0
KJU1 140011Z 07009KT 18/M03 A3021 RMK A01 T01761031  RH  024%=      5-min Rain = 0
KJU1 140012Z 07010KT 18/M03 A3021 RMK A01 T01761032  RH  024%=      5-min Rain = 0
KJU1 140013Z 06009KT 18/M03 A3021 RMK A01 T01751033  RH  024%=      5-min Rain = 0
KJU1 140014Z 07008KT 18/M03 A3021 RMK A01 T01751032  RH  024%=      5-min Rain = 0
KJU1 140015Z 05008KT 18/M03 A3021 RMK A01 T01751032  RH  024%=      5-min Rain = 0
KJU1 140016Z 04008KT 17/M03 A3021 RMK A01 T01741031  RH  024%=      5-min Rain = 0
KJU1 140017Z 05007KT 17/M03 A3021 RMK A01 T01741031  RH  025%=      5-min Rain = 0
KJU1 140018Z 06007KT 17/M03 A3021 RMK A01 T01731031  RH  025%=      5-min Rain = 0
KJU1 140019Z 06008KT 17/M03 A3021 RMK A01 T01721031  RH  025%=      5-min Rain = 0
KJU1 140020Z 05008KT 17/M03 A3021 RMK A01 T01721032  RH  024%=      5-min Rain = 0
KJU1 140021Z 04007KT 17/M03 A3021 RMK A01 T01721031  RH  025%=      5-min Rain = 0
KJU1 140022Z 05009KT 17/M03 A3021 RMK A01 T01721031  RH  025%=      5-min Rain = 0
KJU1 140023Z 06010KT 17/M03 A3021 RMK A01 T01711031  RH  025%=      5-min Rain = 0
KJU1 140024Z 05011KT 17/M03 A3021 RMK A01 T01711032  RH  025%=      5-min Rain = 0
KJU1 140025Z 05008KT 17/M03 A3021 RMK A01 T01711032  RH  025%=      5-min Rain = 0
KJU1 140026Z 05008KT 17/M03 A3022 RMK A01 T01711031  RH  025%=      5-min Rain = 0
KJU1 140027Z 06009KT 17/M03 A3022 RMK A01 T01701031  RH  025%=      5-min Rain = 0
KJU1 140028Z 06009KT 17/M03 A3022 RMK A01 T01701031  RH  025%=      5-min Rain = 0
KJU1 140029Z 06009KT 17/M03 A3022 RMK A01 T01701032  RH  025%=      5-min Rain = 0
KJU1 140030Z 06008KT 17/M03 A3022 RMK A01 T01701031  RH  025%=      5-min Rain = 0
KJU1 140031Z 06007KT 17/M03 A3022 RMK A01 T01691031  RH  025%=      5-min Rain = 0
KJU1 140032Z 06006KT 17/M03 A3022 RMK A01 T01691030  RH  026%=      5-min Rain = 0
KJU1 140033Z 06007KT 17/M03 A3022 RMK A01 T01681029  RH  026%=      5-min Rain = 0
KJU1 140034Z 06008KT 17/M03 A3022 RMK A01 T01671030  RH  026%=      5-min Rain = 0
KJU1 140035Z 06007KT 17/M03 A3022 RMK A01 T01671030  RH  026%=      5-min Rain = 0
KJU1 140036Z 06008KT 17/M03 A3022 RMK A01 T01671030  RH  026%=      5-min Rain = 0
KJU1 140037Z 06008KT 17/M03 A3023 RMK A01 T01671030  RH  026%=      5-min Rain = 0
KJU1 140038Z 06007KT 17/M03 A3023 RMK A01 T01671030  RH  026%=      5-min Rain = 0
KJU1 140039Z 07006KT 17/M03 A3023 RMK A01 T01671029  RH  026%=      5-min Rain = 0
KJU1 140040Z 06007KT 17/M03 A3023 RMK A01 T01671029  RH  026%=      5-min Rain = 0
KJU1 140041Z 06007KT 17/M03 A3023 RMK A01 T01661029  RH  026%=      5-min Rain = 0
KJU1 140042Z 06007KT 17/M03 A3023 RMK A01 T01661029  RH  026%=      5-min Rain = 0
KJU1 140043Z 05008KT 17/M03 A3023 RMK A01 T01651029  RH  026%=      5-min Rain = 0
KJU1 140044Z 06008KT 17/M03 A3023 RMK A01 T01651028  RH  026%=      5-min Rain = 0
KJU1 140045Z 05007KT 17/M03 A3023 RMK A01 T01651029  RH  026%=      5-min Rain = 0
KJU1 140046Z 05006KT 16/M03 A3023 RMK A01 T01641028  RH  027%=      5-min Rain = 0
KJU1 140047Z 06005KT 16/M03 A3023 RMK A01 T01631028  RH  027%=      5-min Rain = 0
KJU1 140048Z 06006KT 16/M03 A3023 RMK A01 T01621028  RH  027%=      5-min Rain = 0
KJU1 140049Z 05005KT 16/M03 A3023 RMK A01 T01611028  RH  027%=      5-min Rain = 0
KJU1 140050Z 06006KT 16/M03 A3023 RMK A01 T01601027  RH  027%=      5-min Rain = 0
KJU1 140051Z 05006KT 16/M03 A3023 RMK A01 T01601028  RH  027%=      5-min Rain = 0
KJU1 140052Z 05005KT 16/M03 A3023 RMK A01 T01601028  RH  027%=      5-min Rain = 0
KJU1 140053Z 06008KT 16/M03 A3023 RMK A01 T01601028  RH  027%=      5-min Rain = 0
KJU1 140054Z 06007KT 16/M03 A3023 RMK A01 T01601028  RH  027%=      5-min Rain = 0
KJU1 140055Z 06005KT 16/M03 A3023 RMK A01 T01601028  RH  027%=      5-min Rain = 0
KJU1 140056Z 05006KT 16/M03 A3023 RMK A01 T01591028  RH  027%=      5-min Rain = 0
KJU1 140057Z 05007KT 16/M03 A3023 RMK A01 T01591028  RH  027%=      5-min Rain = 0
KJU1 140058Z 05006KT 16/M03 A3023 RMK A01 T01591029  RH  027%=      5-min Rain = 0
KJU1 140059Z 05005KT 16/M03 A3023 RMK A01 T01591029  RH  027%=      5-min Rain = 0
KJU1 140100Z 05006KT 16/M03 A3023 RMK A01 T01591028  RH  028%=      5-min Rain = 0
KJU1 140101Z 06006KT 16/M03 A3023 RMK A01 T01581029  RH  028%=      5-min Rain = 0
KJU1 140102Z 06005KT 16/M03 A3023 RMK A01 T01581029  RH  028%=      5-min Rain = 0
KJU1 140103Z 06005KT 16/M03 A3023 RMK A01 T01571029  RH  028%=      5-min Rain = 0
KJU1 140104Z 06006KT 16/M03 A3023 RMK A01 T01551030  RH  028%=      5-min Rain = 0
KJU1 140105Z 06005KT 16/M03 A3023 RMK A01 T01551030  RH  028%=      5-min Rain = 0
KJU1 140106Z 06005KT 16/M03 A3023 RMK A01 T01551030  RH  028%=      5-min Rain = 0
KJU1 140107Z 06006KT 16/M03 A3024 RMK A01 T01561031  RH  027%=      5-min Rain = 0
KJU1 140108Z 06004KT 16/M03 A3024 RMK A01 T01561031  RH  028%=      5-min Rain = 0
KJU1 140109Z 06005KT 16/M03 A3024 RMK A01 T01551031  RH  028%=      5-min Rain = 0
KJU1 140110Z 06005KT 15/M03 A3024 RMK A01 T01541031  RH  028%=      5-min Rain = 0
KJU1 140111Z 06005KT 15/M03 A3024 RMK A01 T01541031  RH  028%=      5-min Rain = 0
KJU1 140112Z 06005KT 15/M03 A3024 RMK A01 T01531030  RH  028%=      5-min Rain = 0
KJU1 140113Z 06005KT 15/M03 A3024 RMK A01 T01531030  RH  028%=      5-min Rain = 0
KJU1 140114Z 06004KT 15/M03 A3024 RMK A01 T01521030  RH  028%=      5-min Rain = 0
KJU1 140115Z 06005KT 15/M03 A3024 RMK A01 T01521030  RH  028%=      5-min Rain = 0
KJU1 140116Z 06005KT 15/M03 A3024 RMK A01 T01521030  RH  028%=      5-min Rain = 0
KJU1 140117Z 06005KT 15/M03 A3024 RMK A01 T01531030  RH  028%=      5-min Rain = 0
KJU1 140118Z 06004KT 15/M03 A3024 RMK A01 T01531031  RH  028%=      5-min Rain = 0
KJU1 140119Z 06005KT 15/M03 A3024 RMK A01 T01521030  RH  028%=      5-min Rain = 0
KJU1 140120Z 06006KT 15/M03 A3024 RMK A01 T01521030  RH  028%=      5-min Rain = 0
KJU1 140121Z 06004KT 15/M03 A3024 RMK A01 T01521030  RH  028%=      5-min Rain = 0
KJU1 140122Z 05005KT 15/M03 A3024 RMK A01 T01521030  RH  028%=      5-min Rain = 0
KJU1 140123Z 06005KT 15/M03 A3024 RMK A01 T01521030  RH  028%=      5-min Rain = 0
KJU1 140124Z 05004KT 15/M03 A3024 RMK A01 T01511030  RH  029%=      5-min Rain = 0
KJU1 140125Z 06004KT 15/M03 A3024 RMK A01 T01501029  RH  029%=      5-min Rain = 0
KJU1 140126Z 05004KT 15/M03 A3024 RMK A01 T01501029  RH  029%=      5-min Rain = 0
KJU1 140127Z 05004KT 15/M03 A3024 RMK A01 T01491029  RH  029%=      5-min Rain = 0
KJU1 140128Z 05003KT 15/M03 A3024 RMK A01 T01491029  RH  029%=      5-min Rain = 0
KJU1 140129Z 05003KT 15/M03 A3024 RMK A01 T01481029  RH  029%=      5-min Rain = 0
KJU1 140130Z 04004KT 15/M03 A3024 RMK A01 T01481028  RH  030%=      5-min Rain = 0
KJU1 140131Z 04004KT 15/M03 A3025 RMK A01 T01471028  RH  030%=      5-min Rain = 0
KJU1 140132Z 03003KT 15/M03 A3025 RMK A01 T01461028  RH  030%=      5-min Rain = 0
KJU1 140133Z 03003KT 15/M03 A3025 RMK A01 T01461028  RH  030%=      5-min Rain = 0
KJU1 140134Z 02003KT 15/M03 A3025 RMK A01 T01461028  RH  030%=      5-min Rain = 0
KJU1 140135Z 02002KT 15/M03 A3025 RMK A01 T01461028  RH  030%=      5-min Rain = 0
KJU1 140136Z 02002KT 15/M03 A3025 RMK A01 T01471028  RH  030%=      5-min Rain = 0
KJU1 140137Z 02002KT 15/M03 A3025 RMK A01 T01471027  RH  030%=      5-min Rain = 0
KJU1 140138Z 03002KT 15/M03 A3025 RMK A01 T01471026  RH  030%=      5-min Rain = 0
KJU1 140139Z 03002KT 15/M03 A3025 RMK A01 T01471026  RH  030%=      5-min Rain = 0
KJU1 140140Z 03002KT 15/M03 A3025 RMK A01 T01471026  RH  030%=      5-min Rain = 0
KJU1 140141Z 03002KT 15/M03 A3025 RMK A01 T01461026  RH  030%=      5-min Rain = 0
KJU1 140142Z 03002KT 15/M03 A3025 RMK A01 T01461026  RH  030%=      5-min Rain = 0
KJU1 140143Z 02002KT 15/M03 A3025 RMK A01 T01461026  RH  030%=      5-min Rain = 0
KJU1 140144Z 04002KT 15/M03 A3025 RMK A01 T01451026  RH  031%=      5-min Rain = 0
KJU1 140145Z 02002KT 14/M03 A3025 RMK A01 T01441025  RH  031%=      5-min Rain = 0
KJU1 140146Z 00002KT 14/M03 A3025 RMK A01 T01431025  RH  031%=      5-min Rain = 0
KJU1 140147Z 00002KT 14/M03 A3025 RMK A01 T01411025  RH  031%=      5-min Rain = 0
KJU1 140148Z 36002KT 14/M03 A3025 RMK A01 T01411025  RH  032%=      5-min Rain = 0
KJU1 140149Z 01002KT 14/M02 A3025 RMK A01 T01401024  RH  032%=      5-min Rain = 0
KJU1 140150Z 00002KT 14/M02 A3026 RMK A01 T01401024  RH  032%=      5-min Rain = 0
KJU1 140151Z 36002KT 14/M02 A3026 RMK A01 T01401022  RH  032%=      5-min Rain = 0
KJU1 140152Z 36002KT 14/M02 A3026 RMK A01 T01391021  RH  033%=      5-min Rain = 0
KJU1 140153Z 35002KT 14/M02 A3026 RMK A01 T01391021  RH  033%=      5-min Rain = 0
KJU1 140154Z 36002KT 14/M02 A3026 RMK A01 T01381020  RH  034%=      5-min Rain = 0
KJU1 140155Z 36002KT 14/M02 A3026 RMK A01 T01371020  RH  034%=      5-min Rain = 0
KJU1 140156Z 00002KT 14/M02 A3026 RMK A01 T01361019  RH  034%=      5-min Rain = 0
KJU1 140157Z 01003KT 14/M02 A3026 RMK A01 T01351018  RH  035%=      5-min Rain = 0
KJU1 140158Z 01002KT 13/M02 A3026 RMK A01 T01341020  RH  034%=      5-min Rain = 0
KJU1 140159Z 01002KT 13/M02 A3026 RMK A01 T01341019  RH  035%=      5-min Rain = 0
KJU1 140200Z 01002KT 13/M02 A3026 RMK A01 T01341019  RH  035%=      5-min Rain = 0
KJU1 140201Z 02001KT 13/M02 A3026 RMK A01 T01341020  RH  035%=      5-min Rain = 0
KJU1 140202Z 02001KT 13/M02 A3026 RMK A01 T01331021  RH  034%=      5-min Rain = 0
KJU1 140203Z 01001KT 13/M02 A3026 RMK A01 T01331022  RH  034%=      5-min Rain = 0
KJU1 140204Z 01001KT 13/M02 A3026 RMK A01 T01331022  RH  034%=      5-min Rain = 0
KJU1 140205Z 00001KT 13/M02 A3026 RMK A01 T01331022  RH  034%=      5-min Rain = 0
KJU1 140206Z 36001KT 13/M02 A3026 RMK A01 T01331021  RH  034%=      5-min Rain = 0
KJU1 140207Z 35001KT 13/M02 A3026 RMK A01 T01311019  RH  035%=      5-min Rain = 0
KJU1 140208Z 36001KT 13/M02 A3026 RMK A01 T01271020  RH  036%=      5-min Rain = 0
KJU1 140209Z 35001KT 12/M02 A3026 RMK A01 T01241021  RH  036%=      5-min Rain = 0
KJU1 140210Z 35001KT 12/M02 A3026 RMK A01 T01211021  RH  037%=      5-min Rain = 0
KJU1 140211Z 34001KT 12/M02 A3026 RMK A01 T01181022  RH  038%=      5-min Rain = 0
KJU1 140212Z 34001KT 12/M02 A3026 RMK A01 T01151024  RH  038%=      5-min Rain = 0
KJU1 140213Z 35001KT 11/M02 A3026 RMK A01 T01131024  RH  038%=      5-min Rain = 0
KJU1 140214Z 33001KT 11/M02 A3026 RMK A01 T01111023  RH  039%=      5-min Rain = 0
KJU1 140215Z 33001KT 11/M02 A3027 RMK A01 T01101024  RH  039%=      5-min Rain = 0
KJU1 140216Z 33000KT 11/M02 A3027 RMK A01 T01101024  RH  039%=      5-min Rain = 0
KJU1 140217Z 00000KT 11/M02 A3027 RMK A01 T01091024  RH  039%=      5-min Rain = 0
KJU1 140218Z 00000KT 11/M02 A3027 RMK A01 T01091023  RH  040%=      5-min Rain = 0
KJU1 140219Z 33001KT 11/M02 A3027 RMK A01 T01091023  RH  040%=      5-min Rain = 0
KJU1 140220Z 33001KT 11/M02 A3027 RMK A01 T01101023  RH  039%=      5-min Rain = 0
KJU1 140221Z 33002KT 11/M02 A3027 RMK A01 T01101023  RH  039%=      5-min Rain = 0
KJU1 140222Z 33001KT 11/M02 A3027 RMK A01 T01111022  RH  039%=      5-min Rain = 0
KJU1 140223Z 33001KT 11/M02 A3027 RMK A01 T01101022  RH  040%=      5-min Rain = 0
KJU1 140224Z 32001KT 11/M02 A3027 RMK A01 T01081022  RH  040%=      5-min Rain = 0
KJU1 140225Z 33002KT 11/M02 A3027 RMK A01 T01061022  RH  041%=      5-min Rain = 0
KJU1 140226Z 33002KT 10/M02 A3027 RMK A01 T01031024  RH  041%=      5-min Rain = 0
KJU1 140227Z 34001KT 10/M02 A3027 RMK A01 T01021024  RH  041%=      5-min Rain = 0
KJU1 140228Z 00001KT 10/M02 A3027 RMK A01 T01011023  RH  042%=      5-min Rain = 0
KJU1 140229Z 34001KT 10/M02 A3027 RMK A01 T00991024  RH  042%=      5-min Rain = 0
KJU1 140230Z 02000KT 10/M02 A3027 RMK A01 T00971024  RH  043%=      5-min Rain = 0
KJU1 140231Z 02001KT 10/M02 A3027 RMK A01 T00961024  RH  043%=      5-min Rain = 0
KJU1 140232Z 03001KT 09/M02 A3027 RMK A01 T00941024  RH  043%=      5-min Rain = 0
KJU1 140233Z 03000KT 09/M02 A3027 RMK A01 T00931024  RH  044%=      5-min Rain = 0
KJU1 140234Z 11000KT 09/M02 A3027 RMK A01 T00911023  RH  044%=      5-min Rain = 0
KJU1 140235Z 00000KT 09/M02 A3027 RMK A01 T00911024  RH  045%=      5-min Rain = 0
KJU1 140236Z 00000KT 09/M02 A3027 RMK A01 T00911024  RH  045%=      5-min Rain = 0
KJU1 140237Z 00000KT 09/M02 A3027 RMK A01 T00911023  RH  045%=      5-min Rain = 0
KJU1 140238Z 00000KT 09/M02 A3027 RMK A01 T00911023  RH  045%=      5-min Rain = 0
KJU1 140239Z 00000KT 09/M02 A3027 RMK A01 T00911022  RH  045%=      5-min Rain = 0
KJU1 140240Z 00000KT 09/M02 A3027 RMK A01 T00911022  RH  045%=      5-min Rain = 0
KJU1 140241Z 32000KT 09/M02 A3027 RMK A01 T00911022  RH  045%=      5-min Rain = 0
KJU1 140242Z 31001KT 09/M02 A3027 RMK A01 T00901022  RH  045%=      5-min Rain = 0
KJU1 140243Z 32002KT 09/M02 A3027 RMK A01 T00901021  RH  045%=      5-min Rain = 0
KJU1 140244Z 32002KT 09/M02 A3027 RMK A01 T00901020  RH  046%=      5-min Rain = 0
KJU1 140245Z 32002KT 09/M02 A3027 RMK A01 T00891020  RH  046%=      5-min Rain = 0
KJU1 140246Z 31002KT 09/M02 A3027 RMK A01 T00881020  RH  047%=      5-min Rain = 0
KJU1 140247Z 32002KT 09/M02 A3027 RMK A01 T00871021  RH  047%=      5-min Rain = 0
KJU1 140248Z 30001KT 09/M02 A3027 RMK A01 T00871020  RH  047%=      5-min Rain = 0
KJU1 140249Z 00000KT 09/M02 A3027 RMK A01 T00861021  RH  047%=      5-min Rain = 0
KJU1 140250Z 00000KT 09/M02 A3027 RMK A01 T00861022  RH  046%=      5-min Rain = 0
KJU1 140251Z 00000KT 09/M02 A3027 RMK A01 T00891022  RH  046%=      5-min Rain = 0
KJU1 140252Z 00000KT 09/M02 A3027 RMK A01 T00911022  RH  045%=      5-min Rain = 0
KJU1 140253Z 00000KT 09/M02 A3027 RMK A01 T00911021  RH  045%=      5-min Rain = 0
KJU1 140254Z 00000KT 09/M02 A3027 RMK A01 T00891022  RH  046%=      5-min Rain = 0
KJU1 140255Z 00000KT 09/M02 A3027 RMK A01 T00881022  RH  046%=      5-min Rain = 0
KJU1 140256Z 00000KT 09/M02 A3027 RMK A01 T00871021  RH  047%=      5-min Rain = 0
KJU1 140257Z 00000KT 09/M02 A3027 RMK A01 T00861022  RH  047%=      5-min Rain = 0
KJU1 140258Z 00000KT 09/M02 A3027 RMK A01 T00861022  RH  047%=      5-min Rain = 0
KJU1 140259Z 00000KT 09/M02 A3027 RMK A01 T00851021  RH  047%=      5-min Rain = 0
KJU1 140300Z 32000KT 09/M02 A3027 RMK A01 T00851022  RH  047%=      5-min Rain = 0
KJU1 140301Z 31001KT 09/M02 A3027 RMK A01 T00851022  RH  047%=      5-min Rain = 0
KJU1 140302Z 31001KT 09/M02 A3027 RMK A01 T00851022  RH  047%=      5-min Rain = 0
KJU1 140303Z 30001KT 09/M02 A3028 RMK A01 T00851022  RH  047%=      5-min Rain = 0
KJU1 140304Z 29001KT 09/M02 A3028 RMK A01 T00871022  RH  047%=      5-min Rain = 0
KJU1 140305Z 29001KT 09/M02 A3028 RMK A01 T00861021  RH  047%=      5-min Rain = 0
KJU1 140306Z 30001KT 08/M02 A3028 RMK A01 T00841022  RH  047%=      5-min Rain = 0
KJU1 140307Z 29001KT 08/M02 A3028 RMK A01 T00821023  RH  048%=      5-min Rain = 0
KJU1 140308Z 30000KT 08/M02 A3028 RMK A01 T00811023  RH  048%=      5-min Rain = 0
KJU1 140309Z 29000KT 08/M02 A3028 RMK A01 T00801022  RH  048%=      5-min Rain = 0
KJU1 140310Z 29000KT 08/M02 A3028 RMK A01 T00791023  RH  049%=      5-min Rain = 0
KJU1 140311Z 00000KT 08/M02 A3028 RMK A01 T00781023  RH  049%=      5-min Rain = 0
KJU1 140312Z 32000KT 08/M02 A3028 RMK A01 T00781023  RH  049%=      5-min Rain = 0
KJU1 140313Z 32002KT 08/M02 A3028 RMK A01 T00771023  RH  049%=      5-min Rain = 0
KJU1 140314Z 33002KT 08/M02 A3028 RMK A01 T00771022  RH  049%=      5-min Rain = 0
KJU1 140315Z 33003KT 08/M02 A3028 RMK A01 T00771022  RH  049%=      5-min Rain = 0
KJU1 140316Z 33003KT 08/M02 A3028 RMK A01 T00801021  RH  049%=      5-min Rain = 0
KJU1 140317Z 32003KT 08/M02 A3028 RMK A01 T00811021  RH  049%=      5-min Rain = 0
KJU1 140318Z 33002KT 08/M02 A3028 RMK A01 T00811020  RH  049%=      5-min Rain = 0
KJU1 140319Z 32002KT 08/M02 A3028 RMK A01 T00801021  RH  049%=      5-min Rain = 0
KJU1 140320Z 32002KT 08/M02 A3028 RMK A01 T00791021  RH  049%=      5-min Rain = 0
KJU1 140321Z 32001KT 08/M02 A3028 RMK A01 T00761020  RH  050%=      5-min Rain = 0
KJU1 140322Z 31002KT 08/M02 A3028 RMK A01 T00761020  RH  051%=      5-min Rain = 0
KJU1 140323Z 31001KT 08/M02 A3028 RMK A01 T00761021  RH  050%=      5-min Rain = 0
KJU1 140324Z 31001KT 08/M02 A3028 RMK A01 T00761022  RH  050%=      5-min Rain = 0
KJU1 140325Z 31000KT 08/M02 A3028 RMK A01 T00751023  RH  050%=      5-min Rain = 0
KJU1 140326Z 36001KT 08/M02 A3028 RMK A01 T00751022  RH  050%=      5-min Rain = 0
KJU1 140327Z 34000KT 08/M02 A3029 RMK A01 T00781021  RH  050%=      5-min Rain = 0
KJU1 140328Z 34001KT 08/M02 A3029 RMK A01 T00781021  RH  050%=      5-min Rain = 0
KJU1 140329Z 34002KT 08/M02 A3029 RMK A01 T00771020  RH  050%=      5-min Rain = 0
KJU1 140330Z 33002KT 08/M02 A3029 RMK A01 T00761020  RH  051%=      5-min Rain = 0
KJU1 140331Z 32002KT 07/M02 A3029 RMK A01 T00741019  RH  051%=      5-min Rain = 0
KJU1 140332Z 32002KT 07/M02 A3029 RMK A01 T00731019  RH  052%=      5-min Rain = 0
KJU1 140333Z 32002KT 07/M02 A3029 RMK A01 T00721019  RH  052%=      5-min Rain = 0
KJU1 140334Z 33003KT 07/M02 A3029 RMK A01 T00711019  RH  053%=      5-min Rain = 0
KJU1 140335Z 33003KT 07/M02 A3029 RMK A01 T00711019  RH  053%=      5-min Rain = 0
KJU1 140336Z 33002KT 07/M02 A3029 RMK A01 T00711020  RH  053%=      5-min Rain = 0
KJU1 140337Z 32002KT 07/M02 A3029 RMK A01 T00711020  RH  053%=      5-min Rain = 0
KJU1 140338Z 32002KT 07/M02 A3029 RMK A01 T00701020  RH  053%=      5-min Rain = 0
KJU1 140339Z 32003KT 07/M02 A3029 RMK A01 T00681020  RH  053%=      5-min Rain = 0
KJU1 140340Z 32002KT 07/M02 A3029 RMK A01 T00671020  RH  054%=      5-min Rain = 0
KJU1 140341Z 33002KT 07/M02 A3029 RMK A01 T00671021  RH  053%=      5-min Rain = 0
KJU1 140342Z 31002KT 07/M02 A3029 RMK A01 T00681022  RH  053%=      5-min Rain = 0
KJU1 140343Z 32002KT 07/M02 A3029 RMK A01 T00701022  RH  052%=      5-min Rain = 0
KJU1 140344Z 33003KT 07/M02 A3029 RMK A01 T00711021  RH  052%=      5-min Rain = 0
KJU1 140345Z 33002KT 07/M02 A3029 RMK A01 T00721020  RH  052%=      5-min Rain = 0
KJU1 140346Z 33002KT 07/M02 A3028 RMK A01 T00711021  RH  052%=      5-min Rain = 0
KJU1 140347Z 33002KT 07/M02 A3028 RMK A01 T00701022  RH  052%=      5-min Rain = 0
KJU1 140348Z 33002KT 07/M02 A3028 RMK A01 T00691023  RH  052%=      5-min Rain = 0
KJU1 140349Z 32002KT 07/M02 A3028 RMK A01 T00691022  RH  052%=      5-min Rain = 0
KJU1 140350Z 32002KT 07/M02 A3029 RMK A01 T00671022  RH  053%=      5-min Rain = 0
KJU1 140351Z 32002KT 07/M02 A3029 RMK A01 T00661023  RH  053%=      5-min Rain = 0
KJU1 140352Z 30002KT 07/M02 A3029 RMK A01 T00661023  RH  053%=      5-min Rain = 0
KJU1 140353Z 30002KT 07/M02 A3029 RMK A01 T00651023  RH  053%=      5-min Rain = 0
KJU1 140354Z 29002KT 07/M02 A3029 RMK A01 T00651023  RH  053%=      5-min Rain = 0
KJU1 140355Z 28002KT 06/M02 A3029 RMK A01 T00631023  RH  054%=      5-min Rain = 0
KJU1 140356Z 28002KT 06/M02 A3029 RMK A01 T00611024  RH  055%=      5-min Rain = 0
KJU1 140357Z 28003KT 06/M02 A3029 RMK A01 T00591023  RH  056%=      5-min Rain = 0
KJU1 140358Z 27001KT 06/M02 A3029 RMK A01 T00581023  RH  056%=      5-min Rain = 0
KJU1 140359Z 29001KT 06/M02 A3029 RMK A01 T00581023  RH  056%=      5-min Rain = 0
KJU1 140400Z 28001KT 06/M02 A3029 RMK A01 T00601021  RH  056%=      5-min Rain = 0
KJU1 140401Z 00000KT 06/M02 A3029 RMK A01 T00621021  RH  055%=      5-min Rain = 0
KJU1 140402Z 00000KT 06/M02 A3029 RMK A01 T00621021  RH  055%=      5-min Rain = 0
KJU1 140403Z 00000KT 06/M02 A3029 RMK A01 T00611021  RH  055%=      5-min Rain = 0
KJU1 140404Z 11001KT 06/M02 A3029 RMK A01 T00611021  RH  055%=      5-min Rain = 0
KJU1 140405Z 12001KT 06/M02 A3029 RMK A01 T00611022  RH  055%=      5-min Rain = 0
KJU1 140406Z 13001KT 06/M02 A3029 RMK A01 T00611022  RH  055%=      5-min Rain = 0
KJU1 140407Z 12001KT 06/M02 A3029 RMK A01 T00601023  RH  055%=      5-min Rain = 0
KJU1 140408Z 12001KT 06/M02 A3029 RMK A01 T00581024  RH  056%=      5-min Rain = 0
KJU1 140409Z 11000KT 06/M02 A3029 RMK A01 T00571023  RH  056%=      5-min Rain = 0
KJU1 140410Z 13001KT 06/M02 A303 RMK A01 T00621020  RH  056%=      5-min Rain = 0
KJU1 140411Z 13001KT 06/M02 A303 RMK A01 T00641021  RH  055%=      5-min Rain = 0
KJU1 140412Z 13001KT 06/M02 A303 RMK A01 T00631022  RH  055%=      5-min Rain = 0
KJU1 140413Z 13001KT 06/M02 A303 RMK A01 T00621023  RH  055%=      5-min Rain = 0
KJU1 140414Z 13001KT 06/M02 A303 RMK A01 T00601023  RH  055%=      5-min Rain = 0
KJU1 140415Z 11001KT 06/M02 A303 RMK A01 T00601023  RH  055%=      5-min Rain = 0
KJU1 140416Z 10000KT 06/M02 A303 RMK A01 T00601023  RH  055%=      5-min Rain = 0
KJU1 140417Z 00000KT 06/M02 A303 RMK A01 T00601022  RH  056%=      5-min Rain = 0
KJU1 140418Z 03000KT 06/M02 A303 RMK A01 T00591023  RH  056%=      5-min Rain = 0
KJU1 140419Z 05001KT 06/M02 A303 RMK A01 T00581023  RH  056%=      5-min Rain = 0
KJU1 140420Z 05002KT 06/M02 A303 RMK A01 T00571023  RH  056%=      5-min Rain = 0
KJU1 140421Z 04002KT 06/M02 A303 RMK A01 T00551022  RH  057%=      5-min Rain = 0
KJU1 140422Z 02001KT 05/M02 A303 RMK A01 T00541021  RH  058%=      5-min Rain = 0
KJU1 140423Z 01000KT 05/M02 A303 RMK A01 T00541020  RH  059%=      5-min Rain = 0
KJU1 140424Z 08000KT 05/M02 A303 RMK A01 T00541019  RH  059%=      5-min Rain = 0
KJU1 140425Z 04001KT 05/M02 A303 RMK A01 T00541018  RH  060%=      5-min Rain = 0
KJU1 140426Z 05001KT 05/M02 A303 RMK A01 T00541018  RH  059%=      5-min Rain = 0
KJU1 140427Z 09001KT 05/M02 A303 RMK A01 T00541020  RH  059%=      5-min Rain = 0
KJU1 140428Z 05002KT 05/M02 A303 RMK A01 T00531022  RH  059%=      5-min Rain = 0
KJU1 140429Z 04001KT 05/M02 A303 RMK A01 T00521022  RH  059%=      5-min Rain = 0
KJU1 140430Z 04001KT 05/M02 A303 RMK A01 T00531021  RH  059%=      5-min Rain = 0
KJU1 140431Z 05001KT 06/M02 A303 RMK A01 T00571020  RH  058%=      5-min Rain = 0
KJU1 140432Z 05001KT 06/M02 A303 RMK A01 T00581021  RH  057%=      5-min Rain = 0
KJU1 140433Z 06000KT 06/M02 A303 RMK A01 T00581021  RH  057%=      5-min Rain = 0
KJU1 140434Z 04000KT 06/M02 A303 RMK A01 T00581021  RH  057%=      5-min Rain = 0
KJU1 140435Z 07000KT 06/M02 A303 RMK A01 T00571021  RH  057%=      5-min Rain = 0
KJU1 140436Z 06000KT 06/M02 A303 RMK A01 T00561022  RH  057%=      5-min Rain = 0
KJU1 140437Z 00000KT 06/M02 A303 RMK A01 T00551022  RH  058%=      5-min Rain = 0
KJU1 140438Z 00000KT 05/M02 A303 RMK A01 T00541022  RH  058%=      5-min Rain = 0
KJU1 140439Z 34001KT 05/M02 A303 RMK A01 T00531023  RH  058%=      5-min Rain = 0
KJU1 140440Z 35001KT 05/M02 A303 RMK A01 T00521023  RH  058%=      5-min Rain = 0
KJU1 140441Z 36001KT 05/M02 A303 RMK A01 T00531022  RH  059%=      5-min Rain = 0
KJU1 140442Z 35002KT 05/M02 A303 RMK A01 T00531021  RH  059%=      5-min Rain = 0
KJU1 140443Z 01001KT 05/M02 A303 RMK A01 T00531021  RH  059%=      5-min Rain = 0
KJU1 140444Z 36001KT 05/M02 A303 RMK A01 T00531020  RH  059%=      5-min Rain = 0
KJU1 140445Z 35000KT 05/M02 A303 RMK A01 T00531020  RH  059%=      5-min Rain = 0
KJU1 140446Z 35001KT 05/M02 A303 RMK A01 T00531021  RH  059%=      5-min Rain = 0
KJU1 140447Z 00001KT 05/M02 A303 RMK A01 T00521023  RH  059%=      5-min Rain = 0
KJU1 140448Z 36001KT 05/M02 A303 RMK A01 T00501024  RH  059%=      5-min Rain = 0
KJU1 140449Z 00000KT 05/M02 A303 RMK A01 T00501024  RH  059%=      5-min Rain = 0
KJU1 140450Z 35001KT 05/M02 A303 RMK A01 T00501024  RH  059%=      5-min Rain = 0
KJU1 140451Z 35001KT 05/M02 A303 RMK A01 T00511023  RH  059%=      5-min Rain = 0
KJU1 140452Z 00000KT 05/M02 A303 RMK A01 T00501023  RH  059%=      5-min Rain = 0
KJU1 140453Z 00000KT 05/M02 A303 RMK A01 T00491023  RH  060%=      5-min Rain = 0
KJU1 140454Z 00000KT 05/M03 A303 RMK A01 T00471025  RH  060%=      5-min Rain = 0
KJU1 140455Z 25000KT 05/M03 A303 RMK A01 T00451026  RH  060%=      5-min Rain = 0
KJU1 140456Z 26001KT 05/M02 A303 RMK A01 T00481022  RH  060%=      5-min Rain = 0
KJU1 140457Z 25001KT 05/M02 A303 RMK A01 T00531020  RH  059%=      5-min Rain = 0
KJU1 140458Z 24002KT 06/M02 A303 RMK A01 T00571019  RH  058%=      5-min Rain = 0
KJU1 140459Z 23002KT 06/M02 A303 RMK A01 T00561021  RH  057%=      5-min Rain = 0
KJU1 140500Z 22001KT 05/M02 A303 RMK A01 T00541023  RH  058%=      5-min Rain = 0

Page generated in 0.032 seconds.